Observation data for Sweetwater on 10/21/2019      Previous  Date       Current Mesonet Observations  Soil Data  Daily Summary Page  Observations in Plain Language
KSW1 210500Z 33014G19KT 21/M08 A298 RMK A01 T02121077  RH  014%=      5-min Rain = 0
KSW1 210501Z 33013KT 21/M08 A298 RMK A01 T02111078  RH  014%=      5-min Rain = 0
KSW1 210502Z 33012KT 21/M08 A298 RMK A01 T02101078  RH  014%=      5-min Rain = 0
KSW1 210503Z 33012KT 21/M08 A298 RMK A01 T02101078  RH  014%=      5-min Rain = 0
KSW1 210504Z 33012KT 21/M08 A298 RMK A01 T02081077  RH  014%=      5-min Rain = 0
KSW1 210505Z 33012KT 21/M08 A298 RMK A01 T02081078  RH  014%=      5-min Rain = 0
KSW1 210506Z 33010KT 21/M08 A298 RMK A01 T02081077  RH  014%=      5-min Rain = 0
KSW1 210507Z 33011KT 21/M08 A298 RMK A01 T02071077  RH  014%=      5-min Rain = 0
KSW1 210508Z 32012KT 21/M08 A298 RMK A01 T02071078  RH  014%=      5-min Rain = 0
KSW1 210509Z 33011KT 21/M08 A298 RMK A01 T02061080  RH  014%=      5-min Rain = 0
KSW1 210510Z 33014KT 21/M08 A298 RMK A01 T02061079  RH  014%=      5-min Rain = 0
KSW1 210511Z 33011KT 21/M08 A298 RMK A01 T02061079  RH  014%=      5-min Rain = 0
KSW1 210512Z 32012KT 21/M08 A298 RMK A01 T02061079  RH  014%=      5-min Rain = 0
KSW1 210513Z 33011KT 21/M08 A298 RMK A01 T02051081  RH  014%=      5-min Rain = 0
KSW1 210514Z 33010KT 21/M08 A298 RMK A01 T02051079  RH  014%=      5-min Rain = 0
KSW1 210515Z 33012G17KT 20/M08 A298 RMK A01 T02041081  RH  014%=      5-min Rain = 0
KSW1 210516Z 33012KT 20/M08 A298 RMK A01 T02041082  RH  014%=      5-min Rain = 0
KSW1 210517Z 33016KT 20/M08 A298 RMK A01 T02041084  RH  014%=      5-min Rain = 0
KSW1 210518Z 33015G20KT 21/M09 A298 RMK A01 T02051087  RH  013%=      5-min Rain = 0
KSW1 210519Z 33012G17KT 21/M09 A298 RMK A01 T02061087  RH  013%=      5-min Rain = 0
KSW1 210520Z 33011KT 21/M09 A298 RMK A01 T02051085  RH  013%=      5-min Rain = 0
KSW1 210521Z 34012KT 20/M09 A298 RMK A01 T02041085  RH  014%=      5-min Rain = 0
KSW1 210522Z 33014KT 20/M09 A298 RMK A01 T02031085  RH  014%=      5-min Rain = 0
KSW1 210523Z 33015G21KT 20/M09 A298 RMK A01 T02021087  RH  013%=      5-min Rain = 0
KSW1 210524Z 33014KT 20/M09 A298 RMK A01 T02031087  RH  013%=      5-min Rain = 0
KSW1 210525Z 33013KT 20/M09 A298 RMK A01 T02031087  RH  013%=      5-min Rain = 0
KSW1 210526Z 34011KT 20/M09 A298 RMK A01 T02031086  RH  013%=      5-min Rain = 0
KSW1 210527Z 33010KT 20/M09 A298 RMK A01 T02021086  RH  014%=      5-min Rain = 0
KSW1 210528Z 33010KT 20/M09 A298 RMK A01 T02001085  RH  014%=      5-min Rain = 0
KSW1 210529Z 33010KT 20/M08 A298 RMK A01 T01991084  RH  014%=      5-min Rain = 0
KSW1 210530Z 33012KT 20/M09 A298 RMK A01 T01991085  RH  014%=      5-min Rain = 0
KSW1 210531Z 33012KT 20/M09 A298 RMK A01 T01991086  RH  014%=      5-min Rain = 0
KSW1 210532Z 33012KT 20/M09 A298 RMK A01 T01981087  RH  014%=      5-min Rain = 0
KSW1 210533Z 33014KT 20/M09 A298 RMK A01 T01991088  RH  014%=      5-min Rain = 0
KSW1 210534Z 33012KT 20/M09 A298 RMK A01 T01991088  RH  014%=      5-min Rain = 0
KSW1 210535Z 33012KT 20/M09 A2979 RMK A01 T01981086  RH  014%=      5-min Rain = 0
KSW1 210536Z 33013KT 20/M09 A2979 RMK A01 T01971087  RH  014%=      5-min Rain = 0
KSW1 210537Z 33015KT 20/M09 A2979 RMK A01 T01981087  RH  014%=      5-min Rain = 0
KSW1 210538Z 33013G18KT 20/M09 A2979 RMK A01 T01971089  RH  014%=      5-min Rain = 0
KSW1 210539Z 33012KT 20/M09 A2979 RMK A01 T01971087  RH  014%=      5-min Rain = 0
KSW1 210540Z 33012KT 20/M09 A2979 RMK A01 T01961087  RH  014%=      5-min Rain = 0
KSW1 210541Z 33012G17KT 20/M09 A2979 RMK A01 T01961086  RH  014%=      5-min Rain = 0
KSW1 210542Z 33014KT 20/M09 A2979 RMK A01 T01951089  RH  014%=      5-min Rain = 0
KSW1 210543Z 33012KT 20/M09 A2979 RMK A01 T01961089  RH  014%=      5-min Rain = 0
KSW1 210544Z 34012KT 20/M09 A2979 RMK A01 T01961088  RH  014%=      5-min Rain = 0
KSW1 210545Z 34013G18KT 20/M09 A2979 RMK A01 T01951089  RH  014%=      5-min Rain = 0
KSW1 210546Z 34012KT 20/M09 A2979 RMK A01 T01951087  RH  014%=      5-min Rain = 0
KSW1 210547Z 34010KT 19/M09 A2979 RMK A01 T01941086  RH  014%=      5-min Rain = 0
KSW1 210548Z 34010KT 19/M09 A2979 RMK A01 T01931086  RH  014%=      5-min Rain = 0
KSW1 210549Z 34010KT 19/M09 A2979 RMK A01 T01921087  RH  014%=      5-min Rain = 0
KSW1 210550Z 35011KT 19/M09 A2979 RMK A01 T01911087  RH  014%=      5-min Rain = 0
KSW1 210551Z 34010KT 19/M09 A2979 RMK A01 T01911088  RH  014%=      5-min Rain = 0
KSW1 210552Z 34009KT 19/M09 A2979 RMK A01 T01911087  RH  014%=      5-min Rain = 0
KSW1 210553Z 34009KT 19/M09 A2979 RMK A01 T01901086  RH  015%=      5-min Rain = 0
KSW1 210554Z 35009KT 19/M09 A2979 RMK A01 T01891085  RH  015%=      5-min Rain = 0
KSW1 210555Z 35008KT 19/M08 A2979 RMK A01 T01881084  RH  015%=      5-min Rain = 0
KSW1 210556Z 35008KT 19/M08 A2979 RMK A01 T01861082  RH  015%=      5-min Rain = 0
KSW1 210557Z 34009KT 19/M08 A2979 RMK A01 T01851083  RH  015%=      5-min Rain = 0
KSW1 210558Z 35009KT 18/M08 A2979 RMK A01 T01841083  RH  015%=      5-min Rain = 0
KSW1 210559Z 34008KT 18/M08 A2979 RMK A01 T01831083  RH  016%=      5-min Rain = 0
KSW1 210600Z 35010KT 18/M09 A2979 RMK A01 T01821085  RH  015%=      5-min Rain = 0
KSW1 210601Z 34011KT 18/M09 A2979 RMK A01 T01831088  RH  015%=      5-min Rain = 0
KSW1 210602Z 35011KT 19/M09 A2979 RMK A01 T01851086  RH  015%=      5-min Rain = 0
KSW1 210603Z 35011KT 19/M08 A2979 RMK A01 T01851084  RH  015%=      5-min Rain = 0
KSW1 210604Z 35010KT 18/M08 A2979 RMK A01 T01831084  RH  015%=      5-min Rain = 0
KSW1 210605Z 35011KT 18/M09 A298 RMK A01 T01831086  RH  015%=      5-min Rain = 0
KSW1 210606Z 35011G16KT 18/M09 A2979 RMK A01 T01831086  RH  015%=      5-min Rain = 0
KSW1 210607Z 35010KT 18/M09 A298 RMK A01 T01841087  RH  015%=      5-min Rain = 0
KSW1 210608Z 35011KT 18/M09 A298 RMK A01 T01841086  RH  015%=      5-min Rain = 0
KSW1 210609Z 36010KT 18/M09 A298 RMK A01 T01841085  RH  015%=      5-min Rain = 0
KSW1 210610Z 36010KT 18/M09 A298 RMK A01 T01841085  RH  015%=      5-min Rain = 0
KSW1 210611Z 35011KT 18/M09 A298 RMK A01 T01831085  RH  015%=      5-min Rain = 0
KSW1 210612Z 35010KT 18/M08 A298 RMK A01 T01821084  RH  016%=      5-min Rain = 0
KSW1 210613Z 36009KT 18/M08 A298 RMK A01 T01811084  RH  016%=      5-min Rain = 0
KSW1 210614Z 35010KT 18/M08 A298 RMK A01 T01811084  RH  016%=      5-min Rain = 0
KSW1 210615Z 36011KT 18/M08 A298 RMK A01 T01811083  RH  016%=      5-min Rain = 0
KSW1 210616Z 35010KT 18/M08 A298 RMK A01 T01801083  RH  016%=      5-min Rain = 0
KSW1 210617Z 36008KT 18/M08 A298 RMK A01 T01791082  RH  016%=      5-min Rain = 0
KSW1 210618Z 36008KT 18/M08 A298 RMK A01 T01781081  RH  016%=      5-min Rain = 0
KSW1 210619Z 36008KT 18/M08 A298 RMK A01 T01761080  RH  017%=      5-min Rain = 0
KSW1 210620Z 36011KT 18/M08 A298 RMK A01 T01751081  RH  017%=      5-min Rain = 0
KSW1 210621Z 36011KT 18/M08 A298 RMK A01 T01751083  RH  016%=      5-min Rain = 0
KSW1 210622Z 36009KT 18/M08 A298 RMK A01 T01761082  RH  016%=      5-min Rain = 0
KSW1 210623Z 00010KT 18/M08 A298 RMK A01 T01771080  RH  017%=      5-min Rain = 0
KSW1 210624Z 00010KT 18/M08 A298 RMK A01 T01761080  RH  017%=      5-min Rain = 0
KSW1 210625Z 01010KT 18/M08 A298 RMK A01 T01751080  RH  017%=      5-min Rain = 0
KSW1 210626Z 00010KT 17/M08 A298 RMK A01 T01741079  RH  017%=      5-min Rain = 0
KSW1 210627Z 00009KT 17/M08 A298 RMK A01 T01741079  RH  017%=      5-min Rain = 0
KSW1 210628Z 01011KT 17/M08 A298 RMK A01 T01741078  RH  017%=      5-min Rain = 0
KSW1 210629Z 01011KT 17/M08 A2981 RMK A01 T01741079  RH  017%=      5-min Rain = 0
KSW1 210630Z 01011KT 17/M08 A2981 RMK A01 T01741079  RH  017%=      5-min Rain = 0
KSW1 210631Z 01012KT 17/M08 A2981 RMK A01 T01741079  RH  017%=      5-min Rain = 0
KSW1 210632Z 01010KT 17/M08 A2981 RMK A01 T01741078  RH  017%=      5-min Rain = 0
KSW1 210633Z 01010G15KT 17/M08 A2981 RMK A01 T01731077  RH  017%=      5-min Rain = 0
KSW1 210634Z 01010KT 17/M08 A2981 RMK A01 T01731076  RH  018%=      5-min Rain = 0
KSW1 210635Z 01012G17KT 17/M08 A2981 RMK A01 T01721075  RH  018%=      5-min Rain = 0
KSW1 210636Z 01015G22KT 17/M08 A2981 RMK A01 T01721075  RH  018%=      5-min Rain = 0
KSW1 210637Z 01013KT 17/M07 A2981 RMK A01 T01731073  RH  018%=      5-min Rain = 0
KSW1 210638Z 01013KT 17/M07 A2981 RMK A01 T01731072  RH  018%=      5-min Rain = 0
KSW1 210639Z 01012G17KT 17/M07 A2981 RMK A01 T01721072  RH  018%=      5-min Rain = 0
KSW1 210640Z 01014KT 17/M07 A2981 RMK A01 T01711071  RH  018%=      5-min Rain = 0
KSW1 210641Z 02013KT 17/M07 A2981 RMK A01 T01701071  RH  019%=      5-min Rain = 0
KSW1 210642Z 02014KT 17/M07 A2981 RMK A01 T01701071  RH  019%=      5-min Rain = 0
KSW1 210643Z 03012KT 17/M07 A2981 RMK A01 T01681070  RH  019%=      5-min Rain = 0
KSW1 210644Z 03013KT 17/M07 A2981 RMK A01 T01661070  RH  019%=      5-min Rain = 0
KSW1 210645Z 03013KT 17/M07 A2981 RMK A01 T01651070  RH  019%=      5-min Rain = 0
KSW1 210646Z 03013KT 16/M07 A2982 RMK A01 T01641068  RH  020%=      5-min Rain = 0
KSW1 210647Z 03015G20KT 16/M06 A2982 RMK A01 T01641062  RH  021%=      5-min Rain = 0
KSW1 210648Z 02012KT 17/M06 A2982 RMK A01 T01651058  RH  021%=      5-min Rain = 0
KSW1 210649Z 01010KT 17/M06 A2983 RMK A01 T01661057  RH  021%=      5-min Rain = 0
KSW1 210650Z 02009KT 17/M06 A2983 RMK A01 T01651055  RH  022%=      5-min Rain = 0
KSW1 210651Z 02009KT 16/M05 A2983 RMK A01 T01641054  RH  022%=      5-min Rain = 0
KSW1 210652Z 03009KT 16/M05 A2983 RMK A01 T01631054  RH  022%=      5-min Rain = 0
KSW1 210653Z 02009KT 16/M05 A2983 RMK A01 T01621052  RH  023%=      5-min Rain = 0
KSW1 210654Z 03009KT 16/M05 A2983 RMK A01 T01601051  RH  023%=      5-min Rain = 0
KSW1 210655Z 03010KT 16/M05 A2983 RMK A01 T01591050  RH  023%=      5-min Rain = 0
KSW1 210656Z 04011KT 16/M05 A2983 RMK A01 T01591048  RH  024%=      5-min Rain = 0
KSW1 210657Z 04012KT 16/M05 A2983 RMK A01 T01581047  RH  024%=      5-min Rain = 0
KSW1 210658Z 03012KT 16/M05 A2984 RMK A01 T01581047  RH  024%=      5-min Rain = 0
KSW1 210659Z 03009KT 16/M05 A2984 RMK A01 T01581046  RH  024%=      5-min Rain = 0
KSW1 210700Z 03010KT 16/M05 A2984 RMK A01 T01571045  RH  025%=      5-min Rain = 0
KSW1 210701Z 03010KT 16/M05 A2984 RMK A01 T01561045  RH  025%=      5-min Rain = 0
KSW1 210702Z 03010KT 16/M04 A2985 RMK A01 T01561044  RH  025%=      5-min Rain = 0
KSW1 210703Z 03009KT 16/M04 A2985 RMK A01 T01561044  RH  025%=      5-min Rain = 0
KSW1 210704Z 03009KT 15/M04 A2985 RMK A01 T01541043  RH  025%=      5-min Rain = 0
KSW1 210705Z 04010KT 15/M04 A2985 RMK A01 T01531043  RH  026%=      5-min Rain = 0
KSW1 210706Z 03011KT 15/M04 A2985 RMK A01 T01531043  RH  026%=      5-min Rain = 0
KSW1 210707Z 04010KT 15/M04 A2985 RMK A01 T01521042  RH  026%=      5-min Rain = 0
KSW1 210708Z 04010KT 15/M04 A2985 RMK A01 T01521041  RH  026%=      5-min Rain = 0
KSW1 210709Z 04009KT 15/M04 A2985 RMK A01 T01511041  RH  026%=      5-min Rain = 0
KSW1 210710Z 03009KT 15/M04 A2985 RMK A01 T01511041  RH  026%=      5-min Rain = 0
KSW1 210711Z 03009KT 15/M04 A2986 RMK A01 T01501040  RH  027%=      5-min Rain = 0
KSW1 210712Z 03010KT 15/M04 A2986 RMK A01 T01501040  RH  027%=      5-min Rain = 0
KSW1 210713Z 03010KT 15/M04 A2986 RMK A01 T01501040  RH  027%=      5-min Rain = 0
KSW1 210714Z 03010KT 15/M04 A2986 RMK A01 T01501040  RH  027%=      5-min Rain = 0
KSW1 210715Z 03010KT 15/M04 A2986 RMK A01 T01501041  RH  027%=      5-min Rain = 0
KSW1 210716Z 03010KT 15/M04 A2986 RMK A01 T01501040  RH  027%=      5-min Rain = 0
KSW1 210717Z 03010KT 15/M04 A2986 RMK A01 T01501040  RH  027%=      5-min Rain = 0
KSW1 210718Z 02011KT 15/M04 A2986 RMK A01 T01501041  RH  027%=      5-min Rain = 0
KSW1 210719Z 02011KT 15/M04 A2986 RMK A01 T01501041  RH  027%=      5-min Rain = 0
KSW1 210720Z 02010KT 15/M04 A2986 RMK A01 T01501040  RH  027%=      5-min Rain = 0
KSW1 210721Z 02010KT 15/M04 A2986 RMK A01 T01501040  RH  027%=      5-min Rain = 0
KSW1 210722Z 02009KT 15/M04 A2987 RMK A01 T01501040  RH  027%=      5-min Rain = 0
KSW1 210723Z 02010KT 15/M04 A2987 RMK A01 T01491040  RH  027%=      5-min Rain = 0
KSW1 210724Z 02009KT 15/M04 A2987 RMK A01 T01481040  RH  027%=      5-min Rain = 0
KSW1 210725Z 03010KT 15/M04 A2986 RMK A01 T01471040  RH  027%=      5-min Rain = 0
KSW1 210726Z 03010KT 15/M04 A2987 RMK A01 T01471039  RH  027%=      5-min Rain = 0
KSW1 210727Z 03010KT 15/M04 A2987 RMK A01 T01471039  RH  028%=      5-min Rain = 0
KSW1 210728Z 02009KT 15/M04 A2987 RMK A01 T01461039  RH  028%=      5-min Rain = 0
KSW1 210729Z 03009KT 14/M04 A2987 RMK A01 T01441039  RH  028%=      5-min Rain = 0
KSW1 210730Z 03009KT 14/M04 A2987 RMK A01 T01441038  RH  028%=      5-min Rain = 0
KSW1 210731Z 03010KT 14/M04 A2987 RMK A01 T01431038  RH  028%=      5-min Rain = 0
KSW1 210732Z 03010KT 14/M04 A2987 RMK A01 T01431038  RH  028%=      5-min Rain = 0
KSW1 210733Z 03009KT 14/M04 A2987 RMK A01 T01421038  RH  028%=      5-min Rain = 0
KSW1 210734Z 03009KT 14/M04 A2987 RMK A01 T01421038  RH  029%=      5-min Rain = 0
KSW1 210735Z 03010KT 14/M04 A2987 RMK A01 T01411038  RH  029%=      5-min Rain = 0
KSW1 210736Z 03009KT 14/M04 A2987 RMK A01 T01411038  RH  029%=      5-min Rain = 0
KSW1 210737Z 03010KT 14/M04 A2987 RMK A01 T01411037  RH  029%=      5-min Rain = 0
KSW1 210738Z 03010KT 14/M04 A2987 RMK A01 T01411037  RH  029%=      5-min Rain = 0
KSW1 210739Z 04009KT 14/M04 A2987 RMK A01 T01401037  RH  029%=      5-min Rain = 0
KSW1 210740Z 04009KT 14/M04 A2987 RMK A01 T01401037  RH  029%=      5-min Rain = 0
KSW1 210741Z 04009KT 14/M04 A2987 RMK A01 T01391037  RH  029%=      5-min Rain = 0
KSW1 210742Z 04008KT 14/M04 A2988 RMK A01 T01391036  RH  029%=      5-min Rain = 0
KSW1 210743Z 04007KT 14/M04 A2988 RMK A01 T01381036  RH  030%=      5-min Rain = 0
KSW1 210744Z 04006KT 14/M04 A2988 RMK A01 T01371037  RH  030%=      5-min Rain = 0
KSW1 210745Z 03006KT 14/M04 A2988 RMK A01 T01371036  RH  030%=      5-min Rain = 0
KSW1 210746Z 03007KT 14/M04 A2988 RMK A01 T01361036  RH  030%=      5-min Rain = 0
KSW1 210747Z 03007KT 14/M04 A2988 RMK A01 T01351036  RH  030%=      5-min Rain = 0
KSW1 210748Z 03007KT 14/M04 A2988 RMK A01 T01351036  RH  030%=      5-min Rain = 0
KSW1 210749Z 03007KT 13/M04 A2988 RMK A01 T01341036  RH  031%=      5-min Rain = 0
KSW1 210750Z 03007KT 13/M04 A2989 RMK A01 T01331035  RH  031%=      5-min Rain = 0
KSW1 210751Z 03006KT 13/M04 A2989 RMK A01 T01321035  RH  031%=      5-min Rain = 0
KSW1 210752Z 03006KT 13/M04 A2989 RMK A01 T01311035  RH  031%=      5-min Rain = 0
KSW1 210753Z 03006KT 13/M04 A2989 RMK A01 T01301035  RH  031%=      5-min Rain = 0
KSW1 210754Z 03007KT 13/M04 A2989 RMK A01 T01291035  RH  032%=      5-min Rain = 0
KSW1 210755Z 03006KT 13/M04 A2989 RMK A01 T01281035  RH  032%=      5-min Rain = 0
KSW1 210756Z 03006KT 13/M04 A2989 RMK A01 T01281035  RH  032%=      5-min Rain = 0
KSW1 210757Z 04006KT 13/M03 A2989 RMK A01 T01271034  RH  032%=      5-min Rain = 0
KSW1 210758Z 04006KT 13/M03 A2989 RMK A01 T01251034  RH  033%=      5-min Rain = 0
KSW1 210759Z 04006KT 12/M03 A2989 RMK A01 T01231034  RH  033%=      5-min Rain = 0
KSW1 210800Z 04007KT 12/M03 A2989 RMK A01 T01211034  RH  034%=      5-min Rain = 0
KSW1 210801Z 05006KT 12/M03 A2989 RMK A01 T01201033  RH  034%=      5-min Rain = 0
KSW1 210802Z 05006KT 12/M03 A2989 RMK A01 T01181033  RH  035%=      5-min Rain = 0
KSW1 210803Z 04006KT 12/M03 A2989 RMK A01 T01171033  RH  035%=      5-min Rain = 0
KSW1 210804Z 04006KT 12/M03 A2989 RMK A01 T01161033  RH  035%=      5-min Rain = 0
KSW1 210805Z 04006KT 12/M03 A2989 RMK A01 T01151033  RH  035%=      5-min Rain = 0
KSW1 210806Z 04006KT 12/M03 A2989 RMK A01 T01151033  RH  035%=      5-min Rain = 0
KSW1 210807Z 04007KT 12/M03 A2989 RMK A01 T01161033  RH  035%=      5-min Rain = 0
KSW1 210808Z 04007KT 12/M03 A2989 RMK A01 T01161033  RH  035%=      5-min Rain = 0
KSW1 210809Z 04007KT 12/M03 A2989 RMK A01 T01161033  RH  035%=      5-min Rain = 0
KSW1 210810Z 04007KT 12/M03 A2989 RMK A01 T01161032  RH  035%=      5-min Rain = 0
KSW1 210811Z 03007KT 12/M03 A2989 RMK A01 T01161032  RH  035%=      5-min Rain = 0
KSW1 210812Z 03007KT 12/M03 A2989 RMK A01 T01161032  RH  035%=      5-min Rain = 0
KSW1 210813Z 03007KT 12/M03 A2989 RMK A01 T01161032  RH  035%=      5-min Rain = 0
KSW1 210814Z 03007KT 12/M03 A299 RMK A01 T01161032  RH  035%=      5-min Rain = 0
KSW1 210815Z 03007KT 12/M03 A299 RMK A01 T01161032  RH  035%=      5-min Rain = 0
KSW1 210816Z 03007KT 12/M03 A299 RMK A01 T01161032  RH  035%=      5-min Rain = 0
KSW1 210817Z 03007KT 12/M03 A299 RMK A01 T01161031  RH  036%=      5-min Rain = 0
KSW1 210818Z 03007KT 12/M03 A299 RMK A01 T01151031  RH  036%=      5-min Rain = 0
KSW1 210819Z 03007KT 11/M03 A299 RMK A01 T01141031  RH  036%=      5-min Rain = 0
KSW1 210820Z 03007KT 11/M03 A299 RMK A01 T01131031  RH  036%=      5-min Rain = 0
KSW1 210821Z 03007KT 11/M03 A299 RMK A01 T01121031  RH  037%=      5-min Rain = 0
KSW1 210822Z 03007KT 11/M03 A299 RMK A01 T01121031  RH  037%=      5-min Rain = 0
KSW1 210823Z 04007KT 11/M03 A299 RMK A01 T01111030  RH  037%=      5-min Rain = 0
KSW1 210824Z 04007KT 11/M03 A299 RMK A01 T01101030  RH  037%=      5-min Rain = 0
KSW1 210825Z 04007KT 11/M03 A299 RMK A01 T01091029  RH  038%=      5-min Rain = 0
KSW1 210826Z 04007KT 11/M03 A299 RMK A01 T01071029  RH  038%=      5-min Rain = 0
KSW1 210827Z 04007KT 11/M03 A299 RMK A01 T01071029  RH  039%=      5-min Rain = 0
KSW1 210828Z 04007KT 11/M03 A299 RMK A01 T01061029  RH  039%=      5-min Rain = 0
KSW1 210829Z 03006KT 11/M03 A299 RMK A01 T01061029  RH  039%=      5-min Rain = 0
KSW1 210830Z 03006KT 11/M03 A299 RMK A01 T01061029  RH  039%=      5-min Rain = 0
KSW1 210831Z 03006KT 11/M03 A299 RMK A01 T01071029  RH  038%=      5-min Rain = 0
KSW1 210832Z 03006KT 11/M03 A299 RMK A01 T01071029  RH  038%=      5-min Rain = 0
KSW1 210833Z 03006KT 11/M03 A299 RMK A01 T01081030  RH  038%=      5-min Rain = 0
KSW1 210834Z 03006KT 11/M03 A299 RMK A01 T01081030  RH  038%=      5-min Rain = 0
KSW1 210835Z 03007KT 11/M03 A299 RMK A01 T01091031  RH  037%=      5-min Rain = 0
KSW1 210836Z 03007KT 11/M03 A299 RMK A01 T01101031  RH  037%=      5-min Rain = 0
KSW1 210837Z 03007KT 11/M03 A299 RMK A01 T01101031  RH  037%=      5-min Rain = 0
KSW1 210838Z 04007KT 11/M03 A299 RMK A01 T01101031  RH  037%=      5-min Rain = 0
KSW1 210839Z 04007KT 11/M03 A299 RMK A01 T01101031  RH  037%=      5-min Rain = 0
KSW1 210840Z 03007KT 11/M03 A299 RMK A01 T01101031  RH  037%=      5-min Rain = 0
KSW1 210841Z 03007KT 11/M03 A299 RMK A01 T01101032  RH  037%=      5-min Rain = 0
KSW1 210842Z 03007KT 11/M03 A299 RMK A01 T01101032  RH  037%=      5-min Rain = 0
KSW1 210843Z 03008KT 11/M03 A299 RMK A01 T01101032  RH  037%=      5-min Rain = 0
KSW1 210844Z 03008KT 11/M03 A299 RMK A01 T01111033  RH  036%=      5-min Rain = 0
KSW1 210845Z 03008KT 11/M03 A299 RMK A01 T01131033  RH  036%=      5-min Rain = 0
KSW1 210846Z 03008KT 11/M03 A299 RMK A01 T01141033  RH  035%=      5-min Rain = 0
KSW1 210847Z 03008KT 12/M03 A299 RMK A01 T01151034  RH  035%=      5-min Rain = 0
KSW1 210848Z 02008KT 12/M03 A299 RMK A01 T01151034  RH  035%=      5-min Rain = 0
KSW1 210849Z 02008KT 12/M03 A299 RMK A01 T01151034  RH  035%=      5-min Rain = 0
KSW1 210850Z 02008KT 12/M03 A299 RMK A01 T01151033  RH  035%=      5-min Rain = 0
KSW1 210851Z 02008KT 11/M03 A299 RMK A01 T01141033  RH  035%=      5-min Rain = 0
KSW1 210852Z 02008KT 11/M03 A299 RMK A01 T01141033  RH  036%=      5-min Rain = 0
KSW1 210853Z 02008KT 11/M03 A299 RMK A01 T01131033  RH  036%=      5-min Rain = 0
KSW1 210854Z 02008KT 11/M03 A299 RMK A01 T01131033  RH  036%=      5-min Rain = 0
KSW1 210855Z 02008KT 11/M03 A299 RMK A01 T01121033  RH  036%=      5-min Rain = 0
KSW1 210856Z 02008KT 11/M03 A299 RMK A01 T01121033  RH  036%=      5-min Rain = 0
KSW1 210857Z 02008KT 11/M03 A299 RMK A01 T01111033  RH  036%=      5-min Rain = 0
KSW1 210858Z 02008KT 11/M03 A299 RMK A01 T01101033  RH  037%=      5-min Rain = 0
KSW1 210859Z 02007KT 11/M03 A299 RMK A01 T01091033  RH  037%=      5-min Rain = 0
KSW1 210900Z 02007KT 11/M03 A299 RMK A01 T01091032  RH  037%=      5-min Rain = 0
KSW1 210901Z 02007KT 11/M03 A299 RMK A01 T01081032  RH  037%=      5-min Rain = 0
KSW1 210902Z 02008KT 11/M03 A299 RMK A01 T01071032  RH  037%=      5-min Rain = 0
KSW1 210903Z 02008KT 11/M03 A299 RMK A01 T01071032  RH  037%=      5-min Rain = 0
KSW1 210904Z 02008KT 11/M03 A299 RMK A01 T01071033  RH  037%=      5-min Rain = 0
KSW1 210905Z 02008KT 11/M03 A299 RMK A01 T01061033  RH  037%=      5-min Rain = 0
KSW1 210906Z 02008KT 11/M03 A299 RMK A01 T01061033  RH  037%=      5-min Rain = 0
KSW1 210907Z 02007KT 11/M03 A299 RMK A01 T01061034  RH  037%=      5-min Rain = 0
KSW1 210908Z 02007KT 11/M03 A299 RMK A01 T01071034  RH  037%=      5-min Rain = 0
KSW1 210909Z 02007KT 11/M03 A2991 RMK A01 T01071034  RH  037%=      5-min Rain = 0
KSW1 210910Z 02007KT 11/M03 A2991 RMK A01 T01071034  RH  037%=      5-min Rain = 0
KSW1 210911Z 03007KT 11/M03 A2991 RMK A01 T01081034  RH  037%=      5-min Rain = 0
KSW1 210912Z 03007KT 11/M03 A2991 RMK A01 T01081034  RH  037%=      5-min Rain = 0
KSW1 210913Z 03007KT 11/M03 A2991 RMK A01 T01081034  RH  037%=      5-min Rain = 0
KSW1 210914Z 03007KT 11/M04 A2991 RMK A01 T01081035  RH  037%=      5-min Rain = 0
KSW1 210915Z 03006KT 11/M04 A2991 RMK A01 T01081035  RH  037%=      5-min Rain = 0
KSW1 210916Z 03006KT 11/M04 A2991 RMK A01 T01081035  RH  036%=      5-min Rain = 0
KSW1 210917Z 02006KT 11/M04 A2991 RMK A01 T01081035  RH  036%=      5-min Rain = 0
KSW1 210918Z 02006KT 11/M04 A2991 RMK A01 T01091036  RH  036%=      5-min Rain = 0
KSW1 210919Z 02006KT 11/M04 A2991 RMK A01 T01101036  RH  036%=      5-min Rain = 0
KSW1 210920Z 03006KT 11/M04 A2991 RMK A01 T01111037  RH  035%=      5-min Rain = 0
KSW1 210921Z 03006KT 11/M04 A2991 RMK A01 T01111037  RH  035%=      5-min Rain = 0
KSW1 210922Z 02006KT 11/M04 A2991 RMK A01 T01111037  RH  035%=      5-min Rain = 0
KSW1 210923Z 02006KT 11/M04 A2991 RMK A01 T01111037  RH  035%=      5-min Rain = 0
KSW1 210924Z 02006KT 11/M04 A2991 RMK A01 T01111038  RH  035%=      5-min Rain = 0
KSW1 210925Z 02006KT 11/M04 A2991 RMK A01 T01121038  RH  035%=      5-min Rain = 0
KSW1 210926Z 02006KT 11/M04 A2991 RMK A01 T01121039  RH  035%=      5-min Rain = 0
KSW1 210927Z 02006KT 11/M04 A2991 RMK A01 T01121039  RH  035%=      5-min Rain = 0
KSW1 210928Z 02006KT 11/M04 A2991 RMK A01 T01121039  RH  035%=      5-min Rain = 0
KSW1 210929Z 01006KT 11/M04 A2991 RMK A01 T01121038  RH  035%=      5-min Rain = 0
KSW1 210930Z 01006KT 11/M04 A2991 RMK A01 T01121038  RH  035%=      5-min Rain = 0
KSW1 210931Z 01006KT 11/M04 A2991 RMK A01 T01111038  RH  035%=      5-min Rain = 0
KSW1 210932Z 01006KT 11/M04 A2991 RMK A01 T01101038  RH  035%=      5-min Rain = 0
KSW1 210933Z 01006KT 11/M04 A2991 RMK A01 T01091038  RH  035%=      5-min Rain = 0
KSW1 210934Z 02006KT 11/M04 A2991 RMK A01 T01091037  RH  036%=      5-min Rain = 0
KSW1 210935Z 01006KT 11/M04 A2991 RMK A01 T01071038  RH  036%=      5-min Rain = 0
KSW1 210936Z 01006KT 11/M04 A2992 RMK A01 T01061038  RH  036%=      5-min Rain = 0
KSW1 210937Z 01006KT 11/M04 A2992 RMK A01 T01061038  RH  036%=      5-min Rain = 0
KSW1 210938Z 01005KT 11/M04 A2992 RMK A01 T01061038  RH  036%=      5-min Rain = 0
KSW1 210939Z 02005KT 11/M04 A2992 RMK A01 T01061037  RH  036%=      5-min Rain = 0
KSW1 210940Z 01005KT 10/M04 A2992 RMK A01 T01041037  RH  037%=      5-min Rain = 0
KSW1 210941Z 01006KT 10/M04 A2992 RMK A01 T01031036  RH  037%=      5-min Rain = 0
KSW1 210942Z 01005KT 10/M04 A2992 RMK A01 T01021036  RH  038%=      5-min Rain = 0
KSW1 210943Z 02005KT 10/M04 A2992 RMK A01 T01011037  RH  038%=      5-min Rain = 0
KSW1 210944Z 02005KT 10/M04 A2992 RMK A01 T01011036  RH  038%=      5-min Rain = 0
KSW1 210945Z 02004KT 10/M04 A2992 RMK A01 T01001035  RH  039%=      5-min Rain = 0
KSW1 210946Z 01005KT 10/M04 A2992 RMK A01 T00981035  RH  039%=      5-min Rain = 0
KSW1 210947Z 01005KT 10/M04 A2992 RMK A01 T00971035  RH  039%=      5-min Rain = 0
KSW1 210948Z 01005KT 10/M04 A2992 RMK A01 T00971035  RH  039%=      5-min Rain = 0
KSW1 210949Z 01005KT 10/M04 A2992 RMK A01 T00971035  RH  039%=      5-min Rain = 0
KSW1 210950Z 00005KT 10/M04 A2992 RMK A01 T00971035  RH  039%=      5-min Rain = 0
KSW1 210951Z 36005KT 10/M04 A2992 RMK A01 T00971035  RH  039%=      5-min Rain = 0
KSW1 210952Z 35006KT 10/M04 A2992 RMK A01 T00971036  RH  039%=      5-min Rain = 0
KSW1 210953Z 35006KT 10/M04 A2992 RMK A01 T00971036  RH  039%=      5-min Rain = 0
KSW1 210954Z 35006KT 10/M04 A2992 RMK A01 T00951036  RH  039%=      5-min Rain = 0
KSW1 210955Z 36007KT 09/M04 A2992 RMK A01 T00941036  RH  040%=      5-min Rain = 0
KSW1 210956Z 36008KT 09/M04 A2992 RMK A01 T00931035  RH  040%=      5-min Rain = 0
KSW1 210957Z 35008KT 09/M04 A2992 RMK A01 T00921035  RH  041%=      5-min Rain = 0
KSW1 210958Z 35008KT 09/M04 A2992 RMK A01 T00901035  RH  041%=      5-min Rain = 0
KSW1 210959Z 35008KT 09/M04 A2992 RMK A01 T00891035  RH  041%=      5-min Rain = 0
KSW1 211000Z 35008KT 09/M04 A2992 RMK A01 T00881035  RH  042%=      5-min Rain = 0
KSW1 211001Z 35009KT 09/M04 A2992 RMK A01 T00871035  RH  042%=      5-min Rain = 0
KSW1 211002Z 36009KT 09/M03 A2992 RMK A01 T00861034  RH  042%=      5-min Rain = 0
KSW1 211003Z 36009KT 09/M04 A2992 RMK A01 T00861035  RH  042%=      5-min Rain = 0
KSW1 211004Z 35008KT 09/M03 A2993 RMK A01 T00861034  RH  042%=      5-min Rain = 0
KSW1 211005Z 35008KT 09/M03 A2993 RMK A01 T00861034  RH  043%=      5-min Rain = 0
KSW1 211006Z 36008KT 09/M03 A2993 RMK A01 T00861034  RH  043%=      5-min Rain = 0
KSW1 211007Z 35008KT 09/M03 A2993 RMK A01 T00861033  RH  043%=      5-min Rain = 0
KSW1 211008Z 36008KT 09/M03 A2993 RMK A01 T00861033  RH  043%=      5-min Rain = 0
KSW1 211009Z 36008KT 09/M03 A2993 RMK A01 T00861034  RH  043%=      5-min Rain = 0
KSW1 211010Z 00008KT 09/M03 A2993 RMK A01 T00861033  RH  043%=      5-min Rain = 0
KSW1 211011Z 35008KT 09/M03 A2993 RMK A01 T00861034  RH  043%=      5-min Rain = 0
KSW1 211012Z 35008KT 09/M03 A2993 RMK A01 T00861034  RH  043%=      5-min Rain = 0
KSW1 211013Z 35007KT 09/M04 A2993 RMK A01 T00861035  RH  042%=      5-min Rain = 0
KSW1 211014Z 35007KT 09/M04 A2993 RMK A01 T00861035  RH  042%=      5-min Rain = 0
KSW1 211015Z 35008KT 09/M04 A2993 RMK A01 T00861035  RH  042%=      5-min Rain = 0
KSW1 211016Z 35008KT 09/M04 A2993 RMK A01 T00851035  RH  043%=      5-min Rain = 0
KSW1 211017Z 35008KT 09/M03 A2993 RMK A01 T00851034  RH  043%=      5-min Rain = 0
KSW1 211018Z 35008KT 09/M03 A2993 RMK A01 T00851034  RH  043%=      5-min Rain = 0
KSW1 211019Z 35008KT 08/M03 A2993 RMK A01 T00841034  RH  043%=      5-min Rain = 0
KSW1 211020Z 35008KT 08/M04 A2993 RMK A01 T00841035  RH  043%=      5-min Rain = 0
KSW1 211021Z 35008KT 08/M04 A2993 RMK A01 T00841035  RH  043%=      5-min Rain = 0
KSW1 211022Z 35008KT 08/M04 A2993 RMK A01 T00841035  RH  043%=      5-min Rain = 0
KSW1 211023Z 35008KT 08/M04 A2993 RMK A01 T00841035  RH  043%=      5-min Rain = 0
KSW1 211024Z 35008KT 08/M04 A2993 RMK A01 T00841035  RH  043%=      5-min Rain = 0
KSW1 211025Z 35009KT 08/M04 A2993 RMK A01 T00831035  RH  043%=      5-min Rain = 0
KSW1 211026Z 35009KT 08/M04 A2993 RMK A01 T00831035  RH  043%=      5-min Rain = 0
KSW1 211027Z 35009KT 08/M04 A2993 RMK A01 T00821035  RH  043%=      5-min Rain = 0
KSW1 211028Z 35008KT 08/M04 A2993 RMK A01 T00831035  RH  043%=      5-min Rain = 0
KSW1 211029Z 35008KT 08/M04 A2993 RMK A01 T00831035  RH  043%=      5-min Rain = 0
KSW1 211030Z 35008KT 08/M04 A2993 RMK A01 T00831035  RH  043%=      5-min Rain = 0
KSW1 211031Z 35008KT 08/M04 A2993 RMK A01 T00831036  RH  043%=      5-min Rain = 0
KSW1 211032Z 35008KT 08/M04 A2993 RMK A01 T00841036  RH  043%=      5-min Rain = 0
KSW1 211033Z 35008KT 08/M04 A2993 RMK A01 T00841036  RH  042%=      5-min Rain = 0
KSW1 211034Z 35007KT 09/M04 A2993 RMK A01 T00851036  RH  042%=      5-min Rain = 0
KSW1 211035Z 36007KT 08/M04 A2993 RMK A01 T00841036  RH  042%=      5-min Rain = 0
KSW1 211036Z 00007KT 08/M04 A2994 RMK A01 T00841037  RH  042%=      5-min Rain = 0
KSW1 211037Z 00008KT 08/M04 A2994 RMK A01 T00841037  RH  042%=      5-min Rain = 0
KSW1 211038Z 00008KT 09/M04 A2994 RMK A01 T00851036  RH  042%=      5-min Rain = 0
KSW1 211039Z 00007KT 09/M04 A2994 RMK A01 T00851037  RH  042%=      5-min Rain = 0
KSW1 211040Z 36007KT 09/M04 A2994 RMK A01 T00861037  RH  042%=      5-min Rain = 0
KSW1 211041Z 35007KT 09/M04 A2994 RMK A01 T00871037  RH  042%=      5-min Rain = 0
KSW1 211042Z 36007KT 09/M04 A2994 RMK A01 T00871037  RH  041%=      5-min Rain = 0
KSW1 211043Z 00007KT 09/M04 A2994 RMK A01 T00861038  RH  041%=      5-min Rain = 0
KSW1 211044Z 00007KT 09/M04 A2995 RMK A01 T00861039  RH  041%=      5-min Rain = 0
KSW1 211045Z 00006KT 09/M04 A2995 RMK A01 T00881040  RH  040%=      5-min Rain = 0
KSW1 211046Z 00006KT 09/M04 A2995 RMK A01 T00891041  RH  040%=      5-min Rain = 0
KSW1 211047Z 00006KT 09/M04 A2995 RMK A01 T00901041  RH  039%=      5-min Rain = 0
KSW1 211048Z 00006KT 09/M04 A2995 RMK A01 T00911040  RH  039%=      5-min Rain = 0
KSW1 211049Z 01007KT 09/M04 A2995 RMK A01 T00911040  RH  039%=      5-min Rain = 0
KSW1 211050Z 01007KT 09/M04 A2995 RMK A01 T00911040  RH  039%=      5-min Rain = 0
KSW1 211051Z 01008KT 09/M04 A2995 RMK A01 T00911040  RH  039%=      5-min Rain = 0
KSW1 211052Z 01008KT 09/M04 A2995 RMK A01 T00911041  RH  039%=      5-min Rain = 0
KSW1 211053Z 01008KT 09/M04 A2995 RMK A01 T00911041  RH  039%=      5-min Rain = 0
KSW1 211054Z 01008KT 09/M04 A2995 RMK A01 T00921041  RH  039%=      5-min Rain = 0
KSW1 211055Z 00007KT 09/M04 A2995 RMK A01 T00941042  RH  038%=      5-min Rain = 0
KSW1 211056Z 01008KT 10/M04 A2995 RMK A01 T00951040  RH  038%=      5-min Rain = 0
KSW1 211057Z 01008KT 09/M04 A2995 RMK A01 T00931041  RH  039%=      5-min Rain = 0
KSW1 211058Z 01008KT 09/M04 A2995 RMK A01 T00921041  RH  039%=      5-min Rain = 0
KSW1 211059Z 01007KT 09/M04 A2995 RMK A01 T00921041  RH  039%=      5-min Rain = 0
KSW1 211100Z 01007KT 09/M04 A2995 RMK A01 T00921042  RH  039%=      5-min Rain = 0
KSW1 211101Z 00008KT 09/M04 A2995 RMK A01 T00921041  RH  039%=      5-min Rain = 0
KSW1 211102Z 00007KT 09/M04 A2995 RMK A01 T00921041  RH  039%=      5-min Rain = 0
KSW1 211103Z 00007KT 09/M04 A2995 RMK A01 T00911040  RH  039%=      5-min Rain = 0
KSW1 211104Z 00007KT 09/M04 A2996 RMK A01 T00901040  RH  040%=      5-min Rain = 0
KSW1 211105Z 00007KT 09/M04 A2996 RMK A01 T00891040  RH  040%=      5-min Rain = 0
KSW1 211106Z 00007KT 09/M04 A2996 RMK A01 T00881040  RH  040%=      5-min Rain = 0
KSW1 211107Z 36007KT 09/M04 A2996 RMK A01 T00871041  RH  040%=      5-min Rain = 0
KSW1 211108Z 36007KT 09/M04 A2996 RMK A01 T00871041  RH  040%=      5-min Rain = 0
KSW1 211109Z 36007KT 09/M04 A2996 RMK A01 T00871040  RH  040%=      5-min Rain = 0
KSW1 211110Z 36006KT 09/M04 A2996 RMK A01 T00861040  RH  041%=      5-min Rain = 0
KSW1 211111Z 36006KT 09/M04 A2996 RMK A01 T00851040  RH  041%=      5-min Rain = 0
KSW1 211112Z 00006KT 08/M04 A2996 RMK A01 T00841040  RH  041%=      5-min Rain = 0
KSW1 211113Z 01007KT 08/M04 A2996 RMK A01 T00841040  RH  041%=      5-min Rain = 0
KSW1 211114Z 00007KT 08/M04 A2996 RMK A01 T00841041  RH  041%=      5-min Rain = 0
KSW1 211115Z 00007KT 08/M04 A2996 RMK A01 T00841041  RH  041%=      5-min Rain = 0
KSW1 211116Z 01007KT 08/M04 A2996 RMK A01 T00841042  RH  041%=      5-min Rain = 0
KSW1 211117Z 01007KT 08/M04 A2996 RMK A01 T00841043  RH  040%=      5-min Rain = 0
KSW1 211118Z 01007KT 09/M04 A2996 RMK A01 T00851044  RH  040%=      5-min Rain = 0
KSW1 211119Z 01007KT 09/M04 A2996 RMK A01 T00861044  RH  039%=      5-min Rain = 0
KSW1 211120Z 01007KT 09/M05 A2996 RMK A01 T00871045  RH  039%=      5-min Rain = 0
KSW1 211121Z 01006KT 09/M05 A2996 RMK A01 T00881045  RH  039%=      5-min Rain = 0
KSW1 211122Z 02006KT 09/M04 A2996 RMK A01 T00891044  RH  039%=      5-min Rain = 0
KSW1 211123Z 02006KT 09/M04 A2997 RMK A01 T00881044  RH  039%=      5-min Rain = 0
KSW1 211124Z 02006KT 09/M05 A2997 RMK A01 T00871045  RH  039%=      5-min Rain = 0
KSW1 211125Z 03006KT 09/M05 A2997 RMK A01 T00861045  RH  039%=      5-min Rain = 0
KSW1 211126Z 03006KT 09/M04 A2997 RMK A01 T00861044  RH  039%=      5-min Rain = 0
KSW1 211127Z 03006KT 09/M04 A2997 RMK A01 T00851044  RH  040%=      5-min Rain = 0
KSW1 211128Z 03006KT 08/M04 A2997 RMK A01 T00831044  RH  040%=      5-min Rain = 0
KSW1 211129Z 04006KT 08/M04 A2997 RMK A01 T00811044  RH  041%=      5-min Rain = 0
KSW1 211130Z 04007KT 08/M04 A2997 RMK A01 T00801044  RH  041%=      5-min Rain = 0
KSW1 211131Z 03008KT 08/M04 A2997 RMK A01 T00791044  RH  041%=      5-min Rain = 0
KSW1 211132Z 03008KT 08/M05 A2997 RMK A01 T00791045  RH  041%=      5-min Rain = 0
KSW1 211133Z 03007KT 08/M05 A2997 RMK A01 T00811046  RH  040%=      5-min Rain = 0
KSW1 211134Z 03007KT 08/M05 A2997 RMK A01 T00831047  RH  040%=      5-min Rain = 0
KSW1 211135Z 03006KT 08/M05 A2997 RMK A01 T00841046  RH  039%=      5-min Rain = 0
KSW1 211136Z 03007KT 09/M05 A2997 RMK A01 T00851046  RH  039%=      5-min Rain = 0
KSW1 211137Z 03007KT 08/M05 A2997 RMK A01 T00841046  RH  039%=      5-min Rain = 0
KSW1 211138Z 03007KT 08/M05 A2997 RMK A01 T00841046  RH  039%=      5-min Rain = 0
KSW1 211139Z 03007KT 08/M05 A2997 RMK A01 T00831046  RH  040%=      5-min Rain = 0
KSW1 211140Z 03007KT 08/M05 A2997 RMK A01 T00831047  RH  040%=      5-min Rain = 0
KSW1 211141Z 03007KT 08/M05 A2997 RMK A01 T00831047  RH  040%=      5-min Rain = 0
KSW1 211142Z 03007KT 08/M05 A2997 RMK A01 T00831046  RH  040%=      5-min Rain = 0
KSW1 211143Z 03007KT 08/M05 A2997 RMK A01 T00821046  RH  040%=      5-min Rain = 0
KSW1 211144Z 02007KT 08/M05 A2997 RMK A01 T00821046  RH  040%=      5-min Rain = 0
KSW1 211145Z 02007KT 08/M05 A2997 RMK A01 T00821046  RH  040%=      5-min Rain = 0
KSW1 211146Z 03008KT 08/M05 A2997 RMK A01 T00811046  RH  040%=      5-min Rain = 0
KSW1 211147Z 03008KT 08/M05 A2997 RMK A01 T00821046  RH  040%=      5-min Rain = 0
KSW1 211148Z 03007KT 08/M05 A2997 RMK A01 T00811046  RH  040%=      5-min Rain = 0
KSW1 211149Z 03007KT 08/M05 A2997 RMK A01 T00811046  RH  040%=      5-min Rain = 0
KSW1 211150Z 03007KT 08/M05 A2997 RMK A01 T00811046  RH  040%=      5-min Rain = 0
KSW1 211151Z 03008KT 08/M05 A2997 RMK A01 T00801045  RH  041%=      5-min Rain = 0
KSW1 211152Z 03007KT 08/M05 A2997 RMK A01 T00801046  RH  041%=      5-min Rain = 0
KSW1 211153Z 03007KT 08/M05 A2997 RMK A01 T00791046  RH  041%=      5-min Rain = 0
KSW1 211154Z 04007KT 08/M05 A2997 RMK A01 T00791046  RH  041%=      5-min Rain = 0
KSW1 211155Z 03007KT 08/M05 A2997 RMK A01 T00791046  RH  041%=      5-min Rain = 0
KSW1 211156Z 03008KT 08/M05 A2997 RMK A01 T00801046  RH  040%=      5-min Rain = 0
KSW1 211157Z 03008KT 08/M05 A2997 RMK A01 T00801047  RH  040%=      5-min Rain = 0
KSW1 211158Z 03007KT 08/M05 A2997 RMK A01 T00811048  RH  040%=      5-min Rain = 0
KSW1 211159Z 03008KT 08/M05 A2997 RMK A01 T00811047  RH  040%=      5-min Rain = 0
KSW1 211200Z 03008KT 08/M05 A2997 RMK A01 T00811047  RH  040%=      5-min Rain = 0
KSW1 211201Z 03007KT 08/M05 A2997 RMK A01 T00811048  RH  040%=      5-min Rain = 0
KSW1 211202Z 03008KT 08/M05 A2997 RMK A01 T00811047  RH  040%=      5-min Rain = 0
KSW1 211203Z 03007KT 08/M05 A2997 RMK A01 T00811048  RH  040%=      5-min Rain = 0
KSW1 211204Z 03007KT 08/M05 A2997 RMK A01 T00821047  RH  040%=      5-min Rain = 0
KSW1 211205Z 03007KT 08/M05 A2998 RMK A01 T00811047  RH  040%=      5-min Rain = 0
KSW1 211206Z 02007KT 08/M05 A2998 RMK A01 T00801048  RH  040%=      5-min Rain = 0
KSW1 211207Z 02007KT 08/M05 A2998 RMK A01 T00801048  RH  040%=      5-min Rain = 0
KSW1 211208Z 02007KT 08/M05 A2998 RMK A01 T00801048  RH  040%=      5-min Rain = 0
KSW1 211209Z 02007KT 08/M05 A2998 RMK A01 T00801048  RH  040%=      5-min Rain = 0
KSW1 211210Z 03007KT 08/M05 A2997 RMK A01 T00801049  RH  040%=      5-min Rain = 0
KSW1 211211Z 03007KT 08/M05 A2997 RMK A01 T00801049  RH  039%=      5-min Rain = 0
KSW1 211212Z 03007KT 08/M05 A2997 RMK A01 T00801049  RH  040%=      5-min Rain = 0
KSW1 211213Z 03007KT 08/M05 A2998 RMK A01 T00801049  RH  040%=      5-min Rain = 0
KSW1 211214Z 03007KT 08/M05 A2998 RMK A01 T00791050  RH  040%=      5-min Rain = 0
KSW1 211215Z 03007KT 08/M05 A2998 RMK A01 T00791049  RH  040%=      5-min Rain = 0
KSW1 211216Z 03006KT 08/M05 A2998 RMK A01 T00791050  RH  040%=      5-min Rain = 0
KSW1 211217Z 03006KT 08/M05 A2998 RMK A01 T00781050  RH  040%=      5-min Rain = 0
KSW1 211218Z 03006KT 08/M05 A2998 RMK A01 T00781050  RH  040%=      5-min Rain = 0
KSW1 211219Z 03006KT 08/M05 A2998 RMK A01 T00771050  RH  040%=      5-min Rain = 0
KSW1 211220Z 03006KT 08/M05 A2998 RMK A01 T00771049  RH  040%=      5-min Rain = 0
KSW1 211221Z 03006KT 08/M05 A2998 RMK A01 T00761050  RH  041%=      5-min Rain = 0
KSW1 211222Z 03006KT 08/M05 A2998 RMK A01 T00751050  RH  041%=      5-min Rain = 0
KSW1 211223Z 04006KT 08/M05 A2998 RMK A01 T00751050  RH  041%=      5-min Rain = 0
KSW1 211224Z 04006KT 07/M05 A2998 RMK A01 T00741050  RH  041%=      5-min Rain = 0
KSW1 211225Z 04006KT 07/M05 A2998 RMK A01 T00741050  RH  041%=      5-min Rain = 0
KSW1 211226Z 04006KT 07/M05 A2998 RMK A01 T00741051  RH  041%=      5-min Rain = 0
KSW1 211227Z 04007KT 08/M05 A2998 RMK A01 T00751052  RH  040%=      5-min Rain = 0
KSW1 211228Z 04006KT 08/M05 A2999 RMK A01 T00761051  RH  040%=      5-min Rain = 0
KSW1 211229Z 03006KT 08/M05 A2999 RMK A01 T00761052  RH  040%=      5-min Rain = 0
KSW1 211230Z 03006KT 08/M05 A2999 RMK A01 T00771053  RH  039%=      5-min Rain = 0
KSW1 211231Z 04007KT 08/M05 A2999 RMK A01 T00791053  RH  039%=      5-min Rain = 0
KSW1 211232Z 03007KT 08/M05 A2999 RMK A01 T00811053  RH  038%=      5-min Rain = 0
KSW1 211233Z 03007KT 08/M05 A2999 RMK A01 T00821053  RH  038%=      5-min Rain = 0
KSW1 211234Z 04007KT 08/M05 A2999 RMK A01 T00821053  RH  038%=      5-min Rain = 0
KSW1 211235Z 03007KT 08/M05 A2999 RMK A01 T00821053  RH  038%=      5-min Rain = 0
KSW1 211236Z 03007KT 08/M05 A2999 RMK A01 T00821053  RH  038%=      5-min Rain = 0
KSW1 211237Z 03008KT 08/M05 A2999 RMK A01 T00821054  RH  038%=      5-min Rain = 0
KSW1 211238Z 03007KT 08/M05 A2999 RMK A01 T00821054  RH  038%=      5-min Rain = 0
KSW1 211239Z 04007KT 08/M05 A2999 RMK A01 T00821053  RH  038%=      5-min Rain = 0
KSW1 211240Z 04007KT 08/M05 A2999 RMK A01 T00821053  RH  038%=      5-min Rain = 0
KSW1 211241Z 03007KT 08/M05 A2999 RMK A01 T00821053  RH  038%=      5-min Rain = 0
KSW1 211242Z 03006KT 08/M05 A2999 RMK A01 T00821053  RH  038%=      5-min Rain = 0
KSW1 211243Z 03007KT 08/M05 A2999 RMK A01 T00811053  RH  038%=      5-min Rain = 0
KSW1 211244Z 03007KT 08/M05 A30 RMK A01 T00811053  RH  038%=      5-min Rain = 0
KSW1 211245Z 03007KT 08/M05 A30 RMK A01 T00801053  RH  038%=      5-min Rain = 0
KSW1 211246Z 04007KT 08/M05 A30 RMK A01 T00801053  RH  038%=      5-min Rain = 0
KSW1 211247Z 04007KT 08/M05 A30 RMK A01 T00801053  RH  039%=      5-min Rain = 0
KSW1 211248Z 04008KT 08/M05 A30 RMK A01 T00801054  RH  038%=      5-min Rain = 0
KSW1 211249Z 04007KT 08/M05 A30 RMK A01 T00801054  RH  038%=      5-min Rain = 0
KSW1 211250Z 04007KT 08/M05 A30 RMK A01 T00811054  RH  038%=      5-min Rain = 0
KSW1 211251Z 03007KT 08/M05 A30 RMK A01 T00811054  RH  038%=      5-min Rain = 0
KSW1 211252Z 03007KT 08/M06 A30 RMK A01 T00811055  RH  038%=      5-min Rain = 0
KSW1 211253Z 03007KT 08/M06 A30 RMK A01 T00811055  RH  038%=      5-min Rain = 0
KSW1 211254Z 03007KT 08/M06 A30 RMK A01 T00821055  RH  037%=      5-min Rain = 0
KSW1 211255Z 04006KT 08/M06 A30 RMK A01 T00831055  RH  037%=      5-min Rain = 0
KSW1 211256Z 03006KT 08/M06 A30 RMK A01 T00841055  RH  037%=      5-min Rain = 0
KSW1 211257Z 03007KT 08/M06 A30 RMK A01 T00841055  RH  037%=      5-min Rain = 0
KSW1 211258Z 03006KT 08/M06 A30 RMK A01 T00841055  RH  037%=      5-min Rain = 0
KSW1 211259Z 04006KT 08/M05 A3001 RMK A01 T00841054  RH  037%=      5-min Rain = 0
KSW1 211300Z 04005KT 08/M05 A3001 RMK A01 T00841054  RH  037%=      5-min Rain = 0
KSW1 211301Z 04006KT 08/M05 A3001 RMK A01 T00831054  RH  037%=      5-min Rain = 0
KSW1 211302Z 04005KT 08/M05 A3001 RMK A01 T00831054  RH  037%=      5-min Rain = 0
KSW1 211303Z 04006KT 08/M05 A3001 RMK A01 T00831054  RH  038%=      5-min Rain = 0
KSW1 211304Z 03006KT 08/M05 A3001 RMK A01 T00831054  RH  037%=      5-min Rain = 0
KSW1 211305Z 03006KT 08/M05 A3001 RMK A01 T00831054  RH  037%=      5-min Rain = 0
KSW1 211306Z 03006KT 08/M05 A3001 RMK A01 T00841053  RH  037%=      5-min Rain = 0
KSW1 211307Z 03006KT 08/M05 A3001 RMK A01 T00841053  RH  038%=      5-min Rain = 0
KSW1 211308Z 03007KT 08/M05 A3001 RMK A01 T00831052  RH  038%=      5-min Rain = 0
KSW1 211309Z 03006KT 08/M05 A3001 RMK A01 T00831053  RH  038%=      5-min Rain = 0
KSW1 211310Z 03007KT 08/M05 A3001 RMK A01 T00831053  RH  038%=      5-min Rain = 0
KSW1 211311Z 03006KT 08/M05 A3001 RMK A01 T00841053  RH  038%=      5-min Rain = 0
KSW1 211312Z 03006KT 08/M05 A3001 RMK A01 T00831052  RH  038%=      5-min Rain = 0
KSW1 211313Z 03007KT 08/M05 A3001 RMK A01 T00831051  RH  038%=      5-min Rain = 0
KSW1 211314Z 02006KT 08/M05 A3001 RMK A01 T00841052  RH  038%=      5-min Rain = 0
KSW1 211315Z 02007KT 08/M05 A3001 RMK A01 T00841051  RH  038%=      5-min Rain = 0
KSW1 211316Z 02007KT 08/M05 A3001 RMK A01 T00841051  RH  038%=      5-min Rain = 0
KSW1 211317Z 03007KT 08/M05 A3001 RMK A01 T00841051  RH  038%=      5-min Rain = 0
KSW1 211318Z 03007KT 08/M05 A3001 RMK A01 T00841051  RH  038%=      5-min Rain = 0
KSW1 211319Z 02007KT 09/M05 A3001 RMK A01 T00851051  RH  038%=      5-min Rain = 0
KSW1 211320Z 02007KT 09/M05 A3001 RMK A01 T00851051  RH  038%=      5-min Rain = 0
KSW1 211321Z 03007KT 09/M05 A3001 RMK A01 T00861050  RH  038%=      5-min Rain = 0
KSW1 211322Z 02007KT 09/M05 A3001 RMK A01 T00861050  RH  038%=      5-min Rain = 0
KSW1 211323Z 02007KT 09/M05 A3001 RMK A01 T00861049  RH  038%=      5-min Rain = 0
KSW1 211324Z 02007KT 09/M05 A3001 RMK A01 T00871050  RH  038%=      5-min Rain = 0
KSW1 211325Z 02007KT 09/M05 A3001 RMK A01 T00871049  RH  038%=      5-min Rain = 0
KSW1 211326Z 03006KT 09/M05 A3001 RMK A01 T00881049  RH  038%=      5-min Rain = 0
KSW1 211327Z 03006KT 09/M05 A3001 RMK A01 T00891050  RH  037%=      5-min Rain = 0
KSW1 211328Z 03006KT 09/M05 A3001 RMK A01 T00901049  RH  037%=      5-min Rain = 0
KSW1 211329Z 02006KT 09/M05 A3001 RMK A01 T00911048  RH  037%=      5-min Rain = 0
KSW1 211330Z 02005KT 09/M05 A3001 RMK A01 T00911048  RH  037%=      5-min Rain = 0
KSW1 211331Z 02006KT 09/M05 A3001 RMK A01 T00921048  RH  037%=      5-min Rain = 0
KSW1 211332Z 02006KT 09/M05 A3002 RMK A01 T00921048  RH  037%=      5-min Rain = 0
KSW1 211333Z 02006KT 09/M05 A3002 RMK A01 T00931048  RH  037%=      5-min Rain = 0
KSW1 211334Z 02006KT 09/M05 A3002 RMK A01 T00931048  RH  036%=      5-min Rain = 0
KSW1 211335Z 02006KT 09/M05 A3002 RMK A01 T00941049  RH  036%=      5-min Rain = 0
KSW1 211336Z 01006KT 10/M05 A3002 RMK A01 T00951049  RH  036%=      5-min Rain = 0
KSW1 211337Z 01006KT 10/M05 A3002 RMK A01 T00961050  RH  035%=      5-min Rain = 0
KSW1 211338Z 01006KT 10/M05 A3002 RMK A01 T00981050  RH  035%=      5-min Rain = 0
KSW1 211339Z 02006KT 10/M05 A3002 RMK A01 T00991050  RH  035%=      5-min Rain = 0
KSW1 211340Z 02006KT 10/M05 A3002 RMK A01 T01001049  RH  034%=      5-min Rain = 0
KSW1 211341Z 02006KT 10/M05 A3002 RMK A01 T01011050  RH  034%=      5-min Rain = 0
KSW1 211342Z 02006KT 10/M05 A3002 RMK A01 T01021050  RH  034%=      5-min Rain = 0
KSW1 211343Z 02006KT 10/M05 A3002 RMK A01 T01031049  RH  034%=      5-min Rain = 0
KSW1 211344Z 02006KT 10/M05 A3002 RMK A01 T01031050  RH  034%=      5-min Rain = 0
KSW1 211345Z 02005KT 10/M05 A3002 RMK A01 T01041048  RH  034%=      5-min Rain = 0
KSW1 211346Z 02005KT 10/M05 A3002 RMK A01 T01041048  RH  034%=      5-min Rain = 0
KSW1 211347Z 02005KT 11/M05 A3002 RMK A01 T01051046  RH  034%=      5-min Rain = 0
KSW1 211348Z 02005KT 11/M05 A3002 RMK A01 T01051047  RH  034%=      5-min Rain = 0
KSW1 211349Z 02006KT 11/M05 A3002 RMK A01 T01061048  RH  034%=      5-min Rain = 0
KSW1 211350Z 02006KT 11/M05 A3002 RMK A01 T01061047  RH  034%=      5-min Rain = 0
KSW1 211351Z 02006KT 11/M05 A3002 RMK A01 T01071047  RH  034%=      5-min Rain = 0
KSW1 211352Z 02005KT 11/M05 A3002 RMK A01 T01081046  RH  034%=      5-min Rain = 0
KSW1 211353Z 02005KT 11/M05 A3002 RMK A01 T01091048  RH  033%=      5-min Rain = 0
KSW1 211354Z 01005KT 11/M05 A3002 RMK A01 T01091048  RH  033%=      5-min Rain = 0
KSW1 211355Z 02005KT 11/M05 A3002 RMK A01 T01101046  RH  033%=      5-min Rain = 0
KSW1 211356Z 02005KT 11/M05 A3002 RMK A01 T01111047  RH  033%=      5-min Rain = 0
KSW1 211357Z 02006KT 11/M05 A3002 RMK A01 T01121047  RH  033%=      5-min Rain = 0
KSW1 211358Z 02006KT 11/M05 A3002 RMK A01 T01131049  RH  032%=      5-min Rain = 0
KSW1 211359Z 02006KT 11/M05 A3002 RMK A01 T01141048  RH  032%=      5-min Rain = 0
KSW1 211400Z 02006KT 12/M05 A3002 RMK A01 T01151048  RH  032%=      5-min Rain = 0
KSW1 211401Z 02006KT 12/M05 A3002 RMK A01 T01171047  RH  031%=      5-min Rain = 0
KSW1 211402Z 02006KT 12/M05 A3002 RMK A01 T01181047  RH  031%=      5-min Rain = 0
KSW1 211403Z 02005KT 12/M05 A3002 RMK A01 T01191047  RH  031%=      5-min Rain = 0
KSW1 211404Z 02006KT 12/M05 A3002 RMK A01 T01191048  RH  031%=      5-min Rain = 0
KSW1 211405Z 02006KT 12/M05 A3002 RMK A01 T01201048  RH  030%=      5-min Rain = 0
KSW1 211406Z 03007KT 12/M05 A3003 RMK A01 T01211047  RH  031%=      5-min Rain = 0
KSW1 211407Z 02005KT 12/M05 A3003 RMK A01 T01221046  RH  031%=      5-min Rain = 0
KSW1 211408Z 02004KT 12/M04 A3003 RMK A01 T01231041  RH  031%=      5-min Rain = 0
KSW1 211409Z 02006KT 12/M04 A3003 RMK A01 T01241043  RH  031%=      5-min Rain = 0
KSW1 211410Z 02005KT 12/M04 A3003 RMK A01 T01241044  RH  031%=      5-min Rain = 0
KSW1 211411Z 02004KT 13/M04 A3003 RMK A01 T01251043  RH  031%=      5-min Rain = 0
KSW1 211412Z 02004KT 13/M04 A3003 RMK A01 T01261041  RH  031%=      5-min Rain = 0
KSW1 211413Z 03005KT 13/M04 A3003 RMK A01 T01271042  RH  031%=      5-min Rain = 0
KSW1 211414Z 03004KT 13/M04 A3003 RMK A01 T01271043  RH  030%=      5-min Rain = 0
KSW1 211415Z 03006KT 13/M04 A3003 RMK A01 T01281043  RH  030%=      5-min Rain = 0
KSW1 211416Z 03005KT 13/M05 A3003 RMK A01 T01291045  RH  029%=      5-min Rain = 0
KSW1 211417Z 02005KT 13/M04 A3003 RMK A01 T01291043  RH  030%=      5-min Rain = 0
KSW1 211418Z 02005KT 13/M04 A3003 RMK A01 T01291043  RH  030%=      5-min Rain = 0
KSW1 211419Z 03005KT 13/M05 A3004 RMK A01 T01301045  RH  029%=      5-min Rain = 0
KSW1 211420Z 05004KT 13/M04 A3004 RMK A01 T01301041  RH  030%=      5-min Rain = 0
KSW1 211421Z 04006KT 13/M04 A3004 RMK A01 T01311040  RH  030%=      5-min Rain = 0
KSW1 211422Z 04006KT 13/M05 A3003 RMK A01 T01321046  RH  029%=      5-min Rain = 0
KSW1 211423Z 04006KT 13/M05 A3003 RMK A01 T01311047  RH  029%=      5-min Rain = 0
KSW1 211424Z 04005KT 13/M04 A3003 RMK A01 T01301044  RH  029%=      5-min Rain = 0
KSW1 211425Z 04004KT 13/M04 A3003 RMK A01 T01321039  RH  030%=      5-min Rain = 0
KSW1 211426Z 04004KT 13/M04 A3003 RMK A01 T01331039  RH  030%=      5-min Rain = 0
KSW1 211427Z 04005KT 14/M04 A3003 RMK A01 T01351040  RH  029%=      5-min Rain = 0
KSW1 211428Z 04004KT 14/M04 A3004 RMK A01 T01361041  RH  029%=      5-min Rain = 0
KSW1 211429Z 04005KT 14/M04 A3004 RMK A01 T01371037  RH  030%=      5-min Rain = 0
KSW1 211430Z 05006KT 14/M04 A3004 RMK A01 T01381040  RH  029%=      5-min Rain = 0
KSW1 211431Z 05005KT 14/M05 A3004 RMK A01 T01381045  RH  028%=      5-min Rain = 0
KSW1 211432Z 04005KT 14/M04 A3004 RMK A01 T01381038  RH  029%=      5-min Rain = 0
KSW1 211433Z 04006KT 14/M04 A3004 RMK A01 T01391041  RH  028%=      5-min Rain = 0
KSW1 211434Z 04005KT 14/M04 A3004 RMK A01 T01401043  RH  028%=      5-min Rain = 0
KSW1 211435Z 03005KT 14/M04 A3004 RMK A01 T01391042  RH  028%=      5-min Rain = 0
KSW1 211436Z 03007KT 14/M04 A3004 RMK A01 T01401043  RH  028%=      5-min Rain = 0
KSW1 211437Z 04007KT 14/M05 A3004 RMK A01 T01401047  RH  027%=      5-min Rain = 0
KSW1 211438Z 05006KT 14/M05 A3004 RMK A01 T01391047  RH  027%=      5-min Rain = 0
KSW1 211439Z 03005KT 14/M04 A3004 RMK A01 T01391043  RH  028%=      5-min Rain = 0
KSW1 211440Z 03006KT 14/M04 A3004 RMK A01 T01411042  RH  028%=      5-min Rain = 0
KSW1 211441Z 04007KT 14/M04 A3004 RMK A01 T01421043  RH  027%=      5-min Rain = 0
KSW1 211442Z 03007KT 14/M05 A3004 RMK A01 T01421047  RH  027%=      5-min Rain = 0
KSW1 211443Z 03006KT 14/M05 A3004 RMK A01 T01421047  RH  027%=      5-min Rain = 0
KSW1 211444Z 02007KT 14/M04 A3004 RMK A01 T01421042  RH  028%=      5-min Rain = 0
KSW1 211445Z 03007KT 14/M05 A3004 RMK A01 T01421046  RH  027%=      5-min Rain = 0
KSW1 211446Z 02007KT 14/M05 A3004 RMK A01 T01421047  RH  027%=      5-min Rain = 0
KSW1 211447Z 02007KT 14/M05 A3005 RMK A01 T01421045  RH  027%=      5-min Rain = 0
KSW1 211448Z 04007KT 14/M05 A3005 RMK A01 T01421047  RH  027%=      5-min Rain = 0
KSW1 211449Z 04007KT 14/M05 A3005 RMK A01 T01421045  RH  027%=      5-min Rain = 0
KSW1 211450Z 04007KT 14/M04 A3005 RMK A01 T01431043  RH  027%=      5-min Rain = 0
KSW1 211451Z 03006KT 14/M04 A3005 RMK A01 T01431042  RH  027%=      5-min Rain = 0
KSW1 211452Z 03008KT 15/M04 A3005 RMK A01 T01451041  RH  027%=      5-min Rain = 0
KSW1 211453Z 04008KT 15/M04 A3005 RMK A01 T01471042  RH  027%=      5-min Rain = 0
KSW1 211454Z 04008KT 15/M05 A3005 RMK A01 T01471045  RH  026%=      5-min Rain = 0
KSW1 211455Z 05007KT 15/M05 A3005 RMK A01 T01471047  RH  026%=      5-min Rain = 0
KSW1 211456Z 04010KT 15/M05 A3005 RMK A01 T01461047  RH  026%=      5-min Rain = 0
KSW1 211457Z 04008KT 15/M05 A3005 RMK A01 T01461046  RH  026%=      5-min Rain = 0
KSW1 211458Z 03009KT 15/M05 A3005 RMK A01 T01451048  RH  026%=      5-min Rain = 0
KSW1 211459Z 02008KT 14/M05 A3005 RMK A01 T01441054  RH  025%=      5-min Rain = 0
KSW1 211500Z 04007KT 14/M05 A3005 RMK A01 T01441053  RH  025%=      5-min Rain = 0
KSW1 211501Z 03008KT 14/M05 A3005 RMK A01 T01441048  RH  026%=      5-min Rain = 0
KSW1 211502Z 04010KT 14/M05 A3005 RMK A01 T01441047  RH  026%=      5-min Rain = 0
KSW1 211503Z 04010KT 15/M05 A3005 RMK A01 T01451046  RH  026%=      5-min Rain = 0
KSW1 211504Z 04009KT 15/M05 A3005 RMK A01 T01461048  RH  026%=      5-min Rain = 0
KSW1 211505Z 03008KT 15/M05 A3005 RMK A01 T01461048  RH  026%=      5-min Rain = 0
KSW1 211506Z 03010KT 15/M05 A3005 RMK A01 T01471045  RH  026%=      5-min Rain = 0
KSW1 211507Z 03009G14KT 15/M05 A3006 RMK A01 T01481046  RH  026%=      5-min Rain = 0
KSW1 211508Z 03010KT 15/M05 A3006 RMK A01 T01481046  RH  026%=      5-min Rain = 0
KSW1 211509Z 03010KT 15/M05 A3006 RMK A01 T01491045  RH  026%=      5-min Rain = 0
KSW1 211510Z 03011KT 15/M05 A3006 RMK A01 T01501047  RH  025%=      5-min Rain = 0
KSW1 211511Z 03012KT 15/M05 A3006 RMK A01 T01481051  RH  025%=      5-min Rain = 0
KSW1 211512Z 03011KT 15/M05 A3005 RMK A01 T01461051  RH  025%=      5-min Rain = 0
KSW1 211513Z 03011KT 15/M05 A3005 RMK A01 T01461048  RH  026%=      5-min Rain = 0
KSW1 211514Z 04011KT 15/M05 A3005 RMK A01 T01471047  RH  026%=      5-min Rain = 0
KSW1 211515Z 04007KT 15/M05 A3005 RMK A01 T01471048  RH  026%=      5-min Rain = 0
KSW1 211516Z 03011KT 15/M05 A3005 RMK A01 T01481045  RH  026%=      5-min Rain = 0
KSW1 211517Z 04009KT 15/M05 A3005 RMK A01 T01481047  RH  026%=      5-min Rain = 0
KSW1 211518Z 04008KT 15/M05 A3005 RMK A01 T01471047  RH  026%=      5-min Rain = 0
KSW1 211519Z 05010KT 15/M04 A3005 RMK A01 T01471044  RH  026%=      5-min Rain = 0
KSW1 211520Z 05011KT 15/M05 A3005 RMK A01 T01491045  RH  026%=      5-min Rain = 0
KSW1 211521Z 04011KT 15/M05 A3005 RMK A01 T01491047  RH  025%=      5-min Rain = 0
KSW1 211522Z 05010KT 15/M05 A3005 RMK A01 T01491045  RH  026%=      5-min Rain = 0
KSW1 211523Z 05011KT 15/M05 A3005 RMK A01 T01491047  RH  026%=      5-min Rain = 0
KSW1 211524Z 05009KT 15/M05 A3005 RMK A01 T01491045  RH  026%=      5-min Rain = 0
KSW1 211525Z 05011KT 15/M04 A3005 RMK A01 T01501043  RH  026%=      5-min Rain = 0
KSW1 211526Z 05010KT 15/M05 A3005 RMK A01 T01501045  RH  026%=      5-min Rain = 0
KSW1 211527Z 05009KT 15/M04 A3005 RMK A01 T01501044  RH  026%=      5-min Rain = 0
KSW1 211528Z 06008KT 15/M04 A3005 RMK A01 T01511041  RH  026%=      5-min Rain = 0
KSW1 211529Z 05010KT 15/M04 A3005 RMK A01 T01531043  RH  026%=      5-min Rain = 0
KSW1 211530Z 05009KT 15/M04 A3005 RMK A01 T01531042  RH  026%=      5-min Rain = 0
KSW1 211531Z 03010KT 15/M05 A3005 RMK A01 T01531045  RH  025%=      5-min Rain = 0
KSW1 211532Z 04009KT 15/M05 A3005 RMK A01 T01511048  RH  025%=      5-min Rain = 0
KSW1 211533Z 05008KT 15/M04 A3005 RMK A01 T01491044  RH  026%=      5-min Rain = 0
KSW1 211534Z 06011KT 15/M04 A3005 RMK A01 T01521043  RH  026%=      5-min Rain = 0
KSW1 211535Z 06010KT 15/M05 A3005 RMK A01 T01511046  RH  025%=      5-min Rain = 0
KSW1 211536Z 06008KT 15/M05 A3005 RMK A01 T01511045  RH  026%=      5-min Rain = 0
KSW1 211537Z 04008KT 15/M04 A3005 RMK A01 T01521041  RH  026%=      5-min Rain = 0
KSW1 211538Z 04009KT 15/M04 A3005 RMK A01 T01541041  RH  026%=      5-min Rain = 0
KSW1 211539Z 04011KT 16/M05 A3005 RMK A01 T01551045  RH  025%=      5-min Rain = 0
KSW1 211540Z 03011KT 15/M04 A3005 RMK A01 T01541044  RH  025%=      5-min Rain = 0
KSW1 211541Z 02010KT 15/M04 A3005 RMK A01 T01541044  RH  025%=      5-min Rain = 0
KSW1 211542Z 04010KT 15/M05 A3005 RMK A01 T01541045  RH  025%=      5-min Rain = 0
KSW1 211543Z 05009KT 16/M05 A3005 RMK A01 T01551045  RH  025%=      5-min Rain = 0
KSW1 211544Z 04009KT 15/M05 A3005 RMK A01 T01541045  RH  025%=      5-min Rain = 0
KSW1 211545Z 03010KT 15/M05 A3005 RMK A01 T01541045  RH  025%=      5-min Rain = 0
KSW1 211546Z 03009KT 15/M04 A3005 RMK A01 T01531044  RH  025%=      5-min Rain = 0
KSW1 211547Z 05009KT 15/M04 A3005 RMK A01 T01531044  RH  025%=      5-min Rain = 0
KSW1 211548Z 05007KT 15/M05 A3005 RMK A01 T01521046  RH  025%=      5-min Rain = 0
KSW1 211549Z 03009KT 15/M04 A3005 RMK A01 T01521041  RH  026%=      5-min Rain = 0
KSW1 211550Z 03010KT 15/M04 A3005 RMK A01 T01541043  RH  025%=      5-min Rain = 0
KSW1 211551Z 03008KT 16/M04 A3004 RMK A01 T01551039  RH  026%=      5-min Rain = 0
KSW1 211552Z 05009KT 16/M04 A3004 RMK A01 T01591038  RH  026%=      5-min Rain = 0
KSW1 211553Z 06007KT 16/M04 A3004 RMK A01 T01591041  RH  025%=      5-min Rain = 0
KSW1 211554Z 05007KT 16/M04 A3005 RMK A01 T01591037  RH  026%=      5-min Rain = 0
KSW1 211555Z 03007KT 16/M04 A3005 RMK A01 T01611039  RH  025%=      5-min Rain = 0
KSW1 211556Z 03009KT 16/M04 A3005 RMK A01 T01601042  RH  025%=      5-min Rain = 0
KSW1 211557Z 03010KT 16/M04 A3005 RMK A01 T01581044  RH  025%=      5-min Rain = 0
KSW1 211558Z 03009KT 16/M05 A3005 RMK A01 T01561046  RH  025%=      5-min Rain = 0
KSW1 211559Z 04009KT 16/M05 A3005 RMK A01 T01551045  RH  025%=      5-min Rain = 0
KSW1 211600Z 05008KT 16/M05 A3005 RMK A01 T01551045  RH  025%=      5-min Rain = 0
KSW1 211601Z 05008KT 16/M05 A3005 RMK A01 T01551046  RH  025%=      5-min Rain = 0
KSW1 211602Z 05008KT 16/M05 A3005 RMK A01 T01551046  RH  025%=      5-min Rain = 0
KSW1 211603Z 05005KT 16/M05 A3005 RMK A01 T01551047  RH  025%=      5-min Rain = 0
KSW1 211604Z 06007KT 16/M04 A3005 RMK A01 T01551041  RH  026%=      5-min Rain = 0
KSW1 211605Z 06010KT 16/M04 A3005 RMK A01 T01571042  RH  025%=      5-min Rain = 0
KSW1 211606Z 07008KT 16/M04 A3005 RMK A01 T01581042  RH  025%=      5-min Rain = 0
KSW1 211607Z 06007KT 16/M04 A3005 RMK A01 T01581044  RH  025%=      5-min Rain = 0
KSW1 211608Z 06009KT 16/M04 A3005 RMK A01 T01571043  RH  025%=      5-min Rain = 0
KSW1 211609Z 04009KT 16/M04 A3005 RMK A01 T01581044  RH  025%=      5-min Rain = 0
KSW1 211610Z 05007KT 16/M04 A3005 RMK A01 T01581042  RH  025%=      5-min Rain = 0
KSW1 211611Z 06008KT 16/M04 A3005 RMK A01 T01611038  RH  025%=      5-min Rain = 0
KSW1 211612Z 07005KT 16/M04 A3005 RMK A01 T01631041  RH  024%=      5-min Rain = 0
KSW1 211613Z 07006KT 16/M04 A3005 RMK A01 T01631041  RH  024%=      5-min Rain = 0
KSW1 211614Z 05008KT 16/M04 A3005 RMK A01 T01631040  RH  024%=      5-min Rain = 0
KSW1 211615Z 04009KT 16/M04 A3005 RMK A01 T01631039  RH  025%=      5-min Rain = 0
KSW1 211616Z 03007KT 16/M04 A3005 RMK A01 T01641042  RH  024%=      5-min Rain = 0
KSW1 211617Z 03006KT 16/M04 A3005 RMK A01 T01621044  RH  024%=      5-min Rain = 0
KSW1 211618Z 04006KT 16/M05 A3005 RMK A01 T01591045  RH  024%=      5-min Rain = 0
KSW1 211619Z 03003KT 16/M05 A3005 RMK A01 T01571046  RH  024%=      5-min Rain = 0
KSW1 211620Z 05005KT 16/M04 A3005 RMK A01 T01571042  RH  025%=      5-min Rain = 0
KSW1 211621Z 03006KT 16/M04 A3005 RMK A01 T01571043  RH  025%=      5-min Rain = 0
KSW1 211622Z 03007KT 16/M04 A3005 RMK A01 T01581042  RH  025%=      5-min Rain = 0
KSW1 211623Z 02009KT 16/M05 A3005 RMK A01 T01591045  RH  024%=      5-min Rain = 0
KSW1 211624Z 03008KT 16/M05 A3005 RMK A01 T01591046  RH  024%=      5-min Rain = 0
KSW1 211625Z 03010KT 16/M05 A3005 RMK A01 T01591046  RH  024%=      5-min Rain = 0
KSW1 211626Z 03007KT 16/M05 A3005 RMK A01 T01591047  RH  024%=      5-min Rain = 0
KSW1 211627Z 36007KT 16/M05 A3005 RMK A01 T01591047  RH  024%=      5-min Rain = 0
KSW1 211628Z 02008KT 16/M05 A3005 RMK A01 T01591046  RH  024%=      5-min Rain = 0
KSW1 211629Z 03008KT 16/M04 A3005 RMK A01 T01591041  RH  025%=      5-min Rain = 0
KSW1 211630Z 03007KT 16/M04 A3005 RMK A01 T01621036  RH  025%=      5-min Rain = 0
KSW1 211631Z 04006KT 16/M04 A3005 RMK A01 T01641042  RH  024%=      5-min Rain = 0
KSW1 211632Z 02005KT 16/M04 A3005 RMK A01 T01611043  RH  024%=      5-min Rain = 0
KSW1 211633Z 03006KT 16/M04 A3005 RMK A01 T01611041  RH  025%=      5-min Rain = 0
KSW1 211634Z 00007KT 16/M05 A3005 RMK A01 T01621045  RH  024%=      5-min Rain = 0
KSW1 211635Z 36005KT 16/M05 A3005 RMK A01 T01611047  RH  024%=      5-min Rain = 0
KSW1 211636Z 01006KT 16/M05 A3005 RMK A01 T01601046  RH  024%=      5-min Rain = 0
KSW1 211637Z 03006KT 16/M04 A3005 RMK A01 T01601043  RH  024%=      5-min Rain = 0
KSW1 211638Z 04009KT 16/M04 A3004 RMK A01 T01621039  RH  025%=      5-min Rain = 0
KSW1 211639Z 03008KT 16/M04 A3004 RMK A01 T01641041  RH  024%=      5-min Rain = 0
KSW1 211640Z 02006KT 16/M04 A3004 RMK A01 T01641041  RH  024%=      5-min Rain = 0
KSW1 211641Z 04007KT 16/M04 A3005 RMK A01 T01631042  RH  024%=      5-min Rain = 0
KSW1 211642Z 04006KT 16/M05 A3005 RMK A01 T01621045  RH  024%=      5-min Rain = 0
KSW1 211643Z 02005KT 16/M04 A3005 RMK A01 T01611044  RH  024%=      5-min Rain = 0
KSW1 211644Z 02007KT 16/M05 A3005 RMK A01 T01621045  RH  024%=      5-min Rain = 0
KSW1 211645Z 02008KT 16/M04 A3004 RMK A01 T01631044  RH  024%=      5-min Rain = 0
KSW1 211646Z 04008KT 16/M04 A3004 RMK A01 T01641040  RH  024%=      5-min Rain = 0
KSW1 211647Z 06008KT 17/M04 A3004 RMK A01 T01671038  RH  024%=      5-min Rain = 0
KSW1 211648Z 06006KT 17/M04 A3004 RMK A01 T01671043  RH  024%=      5-min Rain = 0
KSW1 211649Z 04005KT 17/M04 A3004 RMK A01 T01651042  RH  024%=      5-min Rain = 0
KSW1 211650Z 04006KT 17/M04 A3004 RMK A01 T01651044  RH  023%=      5-min Rain = 0
KSW1 211651Z 02004KT 17/M05 A3004 RMK A01 T01651045  RH  023%=      5-min Rain = 0
KSW1 211652Z 03003KT 16/M05 A3004 RMK A01 T01641045  RH  024%=      5-min Rain = 0
KSW1 211653Z 04001KT 17/M04 A3004 RMK A01 T01651042  RH  024%=      5-min Rain = 0
KSW1 211654Z 02003KT 17/M05 A3004 RMK A01 T01661046  RH  023%=      5-min Rain = 0
KSW1 211655Z 07008KT 17/M04 A3004 RMK A01 T01661043  RH  024%=      5-min Rain = 0
KSW1 211656Z 07008KT 17/M05 A3004 RMK A01 T01671045  RH  023%=      5-min Rain = 0
KSW1 211657Z 06007KT 17/M05 A3004 RMK A01 T01671045  RH  023%=      5-min Rain = 0
KSW1 211658Z 06006KT 17/M05 A3004 RMK A01 T01661048  RH  023%=      5-min Rain = 0
KSW1 211659Z 05005KT 16/M05 A3004 RMK A01 T01641045  RH  023%=      5-min Rain = 0
KSW1 211700Z 06004KT 17/M05 A3004 RMK A01 T01671045  RH  023%=      5-min Rain = 0
KSW1 211701Z 05005KT 17/M05 A3004 RMK A01 T01681048  RH  022%=      5-min Rain = 0
KSW1 211702Z 07002KT 17/M05 A3004 RMK A01 T01671048  RH  023%=      5-min Rain = 0
KSW1 211703Z 09004KT 17/M05 A3004 RMK A01 T01681045  RH  023%=      5-min Rain = 0
KSW1 211704Z 05004KT 17/M05 A3004 RMK A01 T01701048  RH  022%=      5-min Rain = 0
KSW1 211705Z 06006KT 17/M05 A3004 RMK A01 T01701048  RH  022%=      5-min Rain = 0
KSW1 211706Z 01003KT 17/M05 A3004 RMK A01 T01701049  RH  022%=      5-min Rain = 0
KSW1 211707Z 04004KT 17/M04 A3004 RMK A01 T01691044  RH  023%=      5-min Rain = 0
KSW1 211708Z 06005KT 17/M05 A3004 RMK A01 T01701050  RH  022%=      5-min Rain = 0
KSW1 211709Z 06005KT 17/M04 A3004 RMK A01 T01711044  RH  023%=      5-min Rain = 0
KSW1 211710Z 06004KT 17/M05 A3004 RMK A01 T01701047  RH  022%=      5-min Rain = 0
KSW1 211711Z 05004KT 17/M05 A3005 RMK A01 T01691045  RH  023%=      5-min Rain = 0
KSW1 211712Z 07004KT 17/M05 A3005 RMK A01 T01691047  RH  022%=      5-min Rain = 0
KSW1 211713Z 08003KT 17/M04 A3005 RMK A01 T01711041  RH  023%=      5-min Rain = 0
KSW1 211714Z 07004KT 17/M04 A3004 RMK A01 T01741044  RH  022%=      5-min Rain = 0
KSW1 211715Z 08006KT 17/M04 A3005 RMK A01 T01741044  RH  022%=      5-min Rain = 0
KSW1 211716Z 07005KT 18/M04 A3005 RMK A01 T01761042  RH  022%=      5-min Rain = 0
KSW1 211717Z 06003KT 18/M05 A3005 RMK A01 T01771047  RH  021%=      5-min Rain = 0
KSW1 211718Z 07006KT 18/M05 A3005 RMK A01 T01761046  RH  022%=      5-min Rain = 0
KSW1 211719Z 07006KT 18/M05 A3005 RMK A01 T01751046  RH  022%=      5-min Rain = 0
KSW1 211720Z 06005KT 17/M05 A3005 RMK A01 T01741045  RH  022%=      5-min Rain = 0
KSW1 211721Z 07002KT 17/M05 A3005 RMK A01 T01731048  RH  022%=      5-min Rain = 0
KSW1 211722Z 01003KT 17/M05 A3005 RMK A01 T01711049  RH  022%=      5-min Rain = 0
KSW1 211723Z 00005KT 17/M05 A3005 RMK A01 T01711045  RH  022%=      5-min Rain = 0
KSW1 211724Z 35003KT 17/M05 A3005 RMK A01 T01721048  RH  022%=      5-min Rain = 0
KSW1 211725Z 05003KT 17/M05 A3005 RMK A01 T01701048  RH  022%=      5-min Rain = 0
KSW1 211726Z 04005KT 17/M05 A3005 RMK A01 T01691046  RH  023%=      5-min Rain = 0
KSW1 211727Z 03005KT 17/M04 A3005 RMK A01 T01691043  RH  023%=      5-min Rain = 0
KSW1 211728Z 02004KT 17/M04 A3005 RMK A01 T01731040  RH  023%=      5-min Rain = 0
KSW1 211729Z 08004KT 18/M04 A3005 RMK A01 T01771039  RH  023%=      5-min Rain = 0
KSW1 211730Z 06003KT 18/M05 A3005 RMK A01 T01781046  RH  021%=      5-min Rain = 0
KSW1 211731Z 04003KT 18/M05 A3005 RMK A01 T01761045  RH  022%=      5-min Rain = 0
KSW1 211732Z 02005KT 18/M04 A3005 RMK A01 T01781040  RH  022%=      5-min Rain = 0
KSW1 211733Z 04006KT 18/M04 A3005 RMK A01 T01781044  RH  022%=      5-min Rain = 0
KSW1 211734Z 03004KT 18/M05 A3005 RMK A01 T01771047  RH  021%=      5-min Rain = 0
KSW1 211735Z 03004KT 18/M05 A3004 RMK A01 T01761045  RH  022%=      5-min Rain = 0
KSW1 211736Z 04003KT 18/M05 A3004 RMK A01 T01751045  RH  022%=      5-min Rain = 0
KSW1 211737Z 01005KT 18/M05 A3004 RMK A01 T01761047  RH  021%=      5-min Rain = 0
KSW1 211738Z 01004KT 18/M05 A3004 RMK A01 T01761047  RH  022%=      5-min Rain = 0
KSW1 211739Z 31003KT 17/M05 A3004 RMK A01 T01741052  RH  021%=      5-min Rain = 0
KSW1 211740Z 28001KT 17/M05 A3004 RMK A01 T01721050  RH  022%=      5-min Rain = 0
KSW1 211741Z 28002KT 17/M05 A3004 RMK A01 T01721048  RH  022%=      5-min Rain = 0
KSW1 211742Z 30004KT 17/M05 A3004 RMK A01 T01731051  RH  021%=      5-min Rain = 0
KSW1 211743Z 27001KT 17/M06 A3004 RMK A01 T01731056  RH  020%=      5-min Rain = 0
KSW1 211744Z 22004KT 17/M05 A3004 RMK A01 T01741051  RH  021%=      5-min Rain = 0
KSW1 211745Z 23005KT 18/M05 A3004 RMK A01 T01771048  RH  021%=      5-min Rain = 0
KSW1 211746Z 05004KT 18/M05 A3004 RMK A01 T01801045  RH  021%=      5-min Rain = 0
KSW1 211747Z 02005KT 18/M05 A3004 RMK A01 T01801048  RH  021%=      5-min Rain = 0
KSW1 211748Z 36004KT 18/M04 A3004 RMK A01 T01791042  RH  022%=      5-min Rain = 0
KSW1 211749Z 35003KT 18/M05 A3004 RMK A01 T01801048  RH  021%=      5-min Rain = 0
KSW1 211750Z 01003KT 18/M05 A3004 RMK A01 T01791047  RH  021%=      5-min Rain = 0
KSW1 211751Z 34004KT 18/M05 A3004 RMK A01 T01781051  RH  021%=      5-min Rain = 0
KSW1 211752Z 33003KT 18/M05 A3004 RMK A01 T01761051  RH  021%=      5-min Rain = 0
KSW1 211753Z 35004KT 18/M05 A3004 RMK A01 T01751051  RH  021%=      5-min Rain = 0
KSW1 211754Z 01004KT 18/M05 A3004 RMK A01 T01751048  RH  021%=      5-min Rain = 0
KSW1 211755Z 03005KT 18/M05 A3003 RMK A01 T01781045  RH  021%=      5-min Rain = 0
KSW1 211756Z 03005KT 18/M05 A3003 RMK A01 T01791050  RH  021%=      5-min Rain = 0
KSW1 211757Z 02004KT 18/M05 A3003 RMK A01 T01781049  RH  021%=      5-min Rain = 0
KSW1 211758Z 35001KT 18/M05 A3003 RMK A01 T01761052  RH  021%=      5-min Rain = 0
KSW1 211759Z 04001KT 18/M06 A3003 RMK A01 T01761055  RH  020%=      5-min Rain = 0
KSW1 211800Z 06001KT 18/M05 A3004 RMK A01 T01761053  RH  021%=      5-min Rain = 0
KSW1 211801Z 08001KT 18/M06 A3003 RMK A01 T01771055  RH  020%=      5-min Rain = 0
KSW1 211802Z 07002KT 18/M05 A3003 RMK A01 T01791050  RH  021%=      5-min Rain = 0
KSW1 211803Z 07002KT 18/M05 A3003 RMK A01 T01811049  RH  020%=      5-min Rain = 0
KSW1 211804Z 09003KT 18/M05 A3003 RMK A01 T01801051  RH  020%=      5-min Rain = 0
KSW1 211805Z 12003KT 18/M05 A3003 RMK A01 T01801052  RH  020%=      5-min Rain = 0
KSW1 211806Z 12001KT 18/M06 A3003 RMK A01 T01781058  RH  020%=      5-min Rain = 0
KSW1 211807Z 00000KT 18/M06 A3003 RMK A01 T01771057  RH  020%=      5-min Rain = 0
KSW1 211808Z 18001KT 18/M06 A3003 RMK A01 T01781058  RH  020%=      5-min Rain = 0
KSW1 211809Z 19003KT 18/M05 A3003 RMK A01 T01791054  RH  020%=      5-min Rain = 0
KSW1 211810Z 17003KT 18/M06 A3003 RMK A01 T01801056  RH  020%=      5-min Rain = 0
KSW1 211811Z 15001KT 18/M06 A3003 RMK A01 T01801058  RH  019%=      5-min Rain = 0
KSW1 211812Z 13001KT 18/M05 A3003 RMK A01 T01811052  RH  020%=      5-min Rain = 0
KSW1 211813Z 11001KT 18/M05 A3003 RMK A01 T01831054  RH  019%=      5-min Rain = 0
KSW1 211814Z 00000KT 18/M06 A3003 RMK A01 T01841056  RH  019%=      5-min Rain = 0
KSW1 211815Z 15001KT 19/M06 A3003 RMK A01 T01861056  RH  019%=      5-min Rain = 0
KSW1 211816Z 16002KT 19/M06 A3003 RMK A01 T01861056  RH  019%=      5-min Rain = 0
KSW1 211817Z 13001KT 19/M05 A3002 RMK A01 T01871052  RH  019%=      5-min Rain = 0
KSW1 211818Z 09001KT 19/M06 A3002 RMK A01 T01881057  RH  018%=      5-min Rain = 0
KSW1 211819Z 01000KT 19/M06 A3002 RMK A01 T01881059  RH  018%=      5-min Rain = 0
KSW1 211820Z 31003KT 19/M06 A3002 RMK A01 T01861060  RH  018%=      5-min Rain = 0
KSW1 211821Z 31003KT 18/M06 A3002 RMK A01 T01821061  RH  019%=      5-min Rain = 0
KSW1 211822Z 34001KT 18/M06 A3002 RMK A01 T01801058  RH  019%=      5-min Rain = 0
KSW1 211823Z 22004KT 18/M05 A3002 RMK A01 T01801053  RH  020%=      5-min Rain = 0
KSW1 211824Z 22004KT 18/M06 A3002 RMK A01 T01821059  RH  019%=      5-min Rain = 0
KSW1 211825Z 20002KT 18/M06 A3002 RMK A01 T01811058  RH  019%=      5-min Rain = 0
KSW1 211826Z 20004KT 18/M06 A3002 RMK A01 T01831056  RH  019%=      5-min Rain = 0
KSW1 211827Z 17003KT 18/M06 A3002 RMK A01 T01841055  RH  019%=      5-min Rain = 0
KSW1 211828Z 21005KT 19/M06 A3002 RMK A01 T01851057  RH  019%=      5-min Rain = 0
KSW1 211829Z 24001KT 18/M06 A3002 RMK A01 T01841062  RH  018%=      5-min Rain = 0
KSW1 211830Z 18002KT 18/M06 A3002 RMK A01 T01831056  RH  019%=      5-min Rain = 0
KSW1 211831Z 22006KT 19/M05 A3002 RMK A01 T01861053  RH  019%=      5-min Rain = 0
KSW1 211832Z 22006KT 19/M06 A3002 RMK A01 T01881055  RH  019%=      5-min Rain = 0
KSW1 211833Z 20004KT 19/M06 A3002 RMK A01 T01871060  RH  018%=      5-min Rain = 0
KSW1 211834Z 27002KT 19/M06 A3002 RMK A01 T01861059  RH  018%=      5-min Rain = 0
KSW1 211835Z 28003KT 19/M06 A3002 RMK A01 T01861055  RH  019%=      5-min Rain = 0
KSW1 211836Z 28003KT 19/M06 A3002 RMK A01 T01861059  RH  018%=      5-min Rain = 0
KSW1 211837Z 30000KT 19/M06 A3001 RMK A01 T01861060  RH  018%=      5-min Rain = 0
KSW1 211838Z 01001KT 19/M06 A3001 RMK A01 T01851062  RH  018%=      5-min Rain = 0
KSW1 211839Z 36000KT 19/M05 A3001 RMK A01 T01861054  RH  019%=      5-min Rain = 0
KSW1 211840Z 21001KT 19/M06 A3001 RMK A01 T01891055  RH  019%=      5-min Rain = 0
KSW1 211841Z 19003KT 19/M06 A3001 RMK A01 T01901058  RH  018%=      5-min Rain = 0
KSW1 211842Z 22004KT 19/M06 A3001 RMK A01 T01881055  RH  019%=      5-min Rain = 0
KSW1 211843Z 20005KT 19/M05 A3001 RMK A01 T01891054  RH  019%=      5-min Rain = 0
KSW1 211844Z 18005KT 19/M05 A3001 RMK A01 T01911054  RH  018%=      5-min Rain = 0
KSW1 211845Z 19004KT 19/M06 A3001 RMK A01 T01921057  RH  018%=      5-min Rain = 0
KSW1 211846Z 19003KT 19/M06 A3001 RMK A01 T01911055  RH  018%=      5-min Rain = 0
KSW1 211847Z 30002KT 19/M05 A3001 RMK A01 T01911052  RH  019%=      5-min Rain = 0
KSW1 211848Z 31004KT 19/M06 A3001 RMK A01 T01921057  RH  018%=      5-min Rain = 0
KSW1 211849Z 31003KT 19/M06 A30 RMK A01 T01901058  RH  018%=      5-min Rain = 0
KSW1 211850Z 33003KT 19/M06 A30 RMK A01 T01881056  RH  019%=      5-min Rain = 0
KSW1 211851Z 34004KT 19/M06 A30 RMK A01 T01891055  RH  019%=      5-min Rain = 0
KSW1 211852Z 33006KT 19/M05 A30 RMK A01 T01891053  RH  019%=      5-min Rain = 0
KSW1 211853Z 34003KT 19/M05 A30 RMK A01 T01901050  RH  019%=      5-min Rain = 0
KSW1 211854Z 33002KT 19/M05 A30 RMK A01 T01921051  RH  019%=      5-min Rain = 0
KSW1 211855Z 05001KT 19/M05 A30 RMK A01 T01931052  RH  019%=      5-min Rain = 0
KSW1 211856Z 26002KT 19/M05 A30 RMK A01 T01941050  RH  019%=      5-min Rain = 0
KSW1 211857Z 29004KT 20/M05 A30 RMK A01 T01951054  RH  018%=      5-min Rain = 0
KSW1 211858Z 29002KT 20/M06 A30 RMK A01 T01951057  RH  018%=      5-min Rain = 0
KSW1 211859Z 22003KT 20/M05 A30 RMK A01 T01961052  RH  018%=      5-min Rain = 0
KSW1 211900Z 23001KT 20/M07 A2999 RMK A01 T01971068  RH  016%=      5-min Rain = 0
KSW1 211901Z 25003KT 20/M06 A2999 RMK A01 T01971061  RH  017%=      5-min Rain = 0
KSW1 211902Z 25002G7KT 20/M06 A2999 RMK A01 T01981060  RH  017%=      5-min Rain = 0
KSW1 211903Z 27005KT 20/M06 A2999 RMK A01 T01981060  RH  017%=      5-min Rain = 0
KSW1 211904Z 30005KT 20/M06 A2999 RMK A01 T01981063  RH  017%=      5-min Rain = 0
KSW1 211905Z 30005KT 20/M07 A2999 RMK A01 T01991065  RH  016%=      5-min Rain = 0
KSW1 211906Z 29006KT 20/M06 A2999 RMK A01 T01981064  RH  017%=      5-min Rain = 0
KSW1 211907Z 28007KT 20/M07 A2999 RMK A01 T01961067  RH  016%=      5-min Rain = 0
KSW1 211908Z 26006G11KT 20/M06 A2999 RMK A01 T01951063  RH  017%=      5-min Rain = 0
KSW1 211909Z 28004KT 20/M06 A2999 RMK A01 T01961062  RH  017%=      5-min Rain = 0
KSW1 211910Z 28005KT 20/M06 A2999 RMK A01 T01961063  RH  017%=      5-min Rain = 0
KSW1 211911Z 28007KT 20/M06 A2999 RMK A01 T01961064  RH  017%=      5-min Rain = 0
KSW1 211912Z 26005KT 20/M07 A2999 RMK A01 T01961065  RH  016%=      5-min Rain = 0
KSW1 211913Z 28005KT 20/M07 A2999 RMK A01 T01961065  RH  017%=      5-min Rain = 0
KSW1 211914Z 29006KT 20/M06 A2999 RMK A01 T01961064  RH  017%=      5-min Rain = 0
KSW1 211915Z 30004KT 20/M07 A2999 RMK A01 T01971068  RH  016%=      5-min Rain = 0
KSW1 211916Z 28004KT 20/M07 A2999 RMK A01 T01971066  RH  016%=      5-min Rain = 0
KSW1 211917Z 26005KT 20/M07 A2999 RMK A01 T01971066  RH  016%=      5-min Rain = 0
KSW1 211918Z 25009KT 20/M07 A2999 RMK A01 T01991065  RH  016%=      5-min Rain = 0
KSW1 211919Z 26010KT 20/M07 A2999 RMK A01 T02011069  RH  016%=      5-min Rain = 0
KSW1 211920Z 25010KT 20/M07 A2999 RMK A01 T02011069  RH  016%=      5-min Rain = 0
KSW1 211921Z 23007KT 20/M07 A2999 RMK A01 T02001074  RH  015%=      5-min Rain = 0
KSW1 211922Z 22005KT 20/M08 A2999 RMK A01 T01971075  RH  015%=      5-min Rain = 0
KSW1 211923Z 22005KT 20/M07 A2998 RMK A01 T01961074  RH  015%=      5-min Rain = 0
KSW1 211924Z 23005KT 20/M07 A2998 RMK A01 T01961073  RH  016%=      5-min Rain = 0
KSW1 211925Z 21004KT 20/M07 A2998 RMK A01 T01961073  RH  016%=      5-min Rain = 0
KSW1 211926Z 23006KT 20/M07 A2998 RMK A01 T01981068  RH  016%=      5-min Rain = 0
KSW1 211927Z 23007KT 20/M07 A2998 RMK A01 T02011068  RH  016%=      5-min Rain = 0
KSW1 211928Z 26008KT 20/M07 A2998 RMK A01 T02031071  RH  015%=      5-min Rain = 0
KSW1 211929Z 24005KT 20/M08 A2998 RMK A01 T02021078  RH  014%=      5-min Rain = 0
KSW1 211930Z 25006KT 20/M08 A2998 RMK A01 T02011076  RH  015%=      5-min Rain = 0
KSW1 211931Z 27007KT 20/M07 A2998 RMK A01 T02021074  RH  015%=      5-min Rain = 0
KSW1 211932Z 28005KT 20/M08 A2998 RMK A01 T02021080  RH  014%=      5-min Rain = 0
KSW1 211933Z 29003KT 20/M07 A2998 RMK A01 T02011072  RH  015%=      5-min Rain = 0
KSW1 211934Z 27006KT 20/M07 A2998 RMK A01 T02021070  RH  015%=      5-min Rain = 0
KSW1 211935Z 26007KT 20/M07 A2998 RMK A01 T02031070  RH  015%=      5-min Rain = 0
KSW1 211936Z 26008KT 20/M07 A2998 RMK A01 T02041071  RH  015%=      5-min Rain = 0
KSW1 211937Z 26010KT 20/M07 A2998 RMK A01 T02041073  RH  015%=      5-min Rain = 0
KSW1 211938Z 27009KT 20/M08 A2998 RMK A01 T02041078  RH  014%=      5-min Rain = 0
KSW1 211939Z 28009KT 20/M08 A2998 RMK A01 T02031075  RH  015%=      5-min Rain = 0
KSW1 211940Z 27006KT 20/M07 A2998 RMK A01 T02031072  RH  015%=      5-min Rain = 0
KSW1 211941Z 29006KT 21/M08 A2998 RMK A01 T02051075  RH  014%=      5-min Rain = 0
KSW1 211942Z 27004KT 20/M07 A2998 RMK A01 T02041072  RH  015%=      5-min Rain = 0
KSW1 211943Z 27002KT 20/M07 A2998 RMK A01 T02041073  RH  015%=      5-min Rain = 0
KSW1 211944Z 33003KT 21/M07 A2998 RMK A01 T02051073  RH  015%=      5-min Rain = 0
KSW1 211945Z 28008G13KT 21/M07 A2998 RMK A01 T02051070  RH  015%=      5-min Rain = 0
KSW1 211946Z 28008KT 21/M07 A2998 RMK A01 T02061072  RH  015%=      5-min Rain = 0
KSW1 211947Z 26006KT 20/M07 A2998 RMK A01 T02041073  RH  015%=      5-min Rain = 0
KSW1 211948Z 27007KT 20/M07 A2998 RMK A01 T02031071  RH  015%=      5-min Rain = 0
KSW1 211949Z 25007KT 20/M08 A2997 RMK A01 T02041075  RH  015%=      5-min Rain = 0
KSW1 211950Z 25005KT 20/M08 A2997 RMK A01 T02031077  RH  014%=      5-min Rain = 0
KSW1 211951Z 23006KT 20/M07 A2997 RMK A01 T02021074  RH  015%=      5-min Rain = 0
KSW1 211952Z 23005KT 20/M08 A2997 RMK A01 T02031076  RH  015%=      5-min Rain = 0
KSW1 211953Z 25005KT 20/M07 A2997 RMK A01 T02041073  RH  015%=      5-min Rain = 0
KSW1 211954Z 27009KT 21/M07 A2997 RMK A01 T02051073  RH  015%=      5-min Rain = 0
KSW1 211955Z 27007KT 21/M07 A2997 RMK A01 T02051070  RH  015%=      5-min Rain = 0
KSW1 211956Z 27005KT 21/M07 A2997 RMK A01 T02061069  RH  015%=      5-min Rain = 0
KSW1 211957Z 26003KT 21/M07 A2997 RMK A01 T02071065  RH  015%=      5-min Rain = 0
KSW1 211958Z 30004KT 21/M07 A2997 RMK A01 T02091072  RH  014%=      5-min Rain = 0
KSW1 211959Z 32006KT 21/M07 A2997 RMK A01 T02091073  RH  014%=      5-min Rain = 0
KSW1 212000Z 28008KT 21/M07 A2997 RMK A01 T02061070  RH  015%=      5-min Rain = 0
KSW1 212001Z 27008KT 21/M07 A2997 RMK A01 T02061070  RH  015%=      5-min Rain = 0
KSW1 212002Z 26006KT 21/M07 A2997 RMK A01 T02061074  RH  014%=      5-min Rain = 0
KSW1 212003Z 25006KT 21/M08 A2997 RMK A01 T02061075  RH  014%=      5-min Rain = 0
KSW1 212004Z 26005KT 21/M08 A2997 RMK A01 T02061076  RH  014%=      5-min Rain = 0
KSW1 212005Z 28002KT 21/M08 A2996 RMK A01 T02061082  RH  014%=      5-min Rain = 0
KSW1 212006Z 28004KT 21/M07 A2996 RMK A01 T02051072  RH  015%=      5-min Rain = 0
KSW1 212007Z 28006KT 21/M08 A2997 RMK A01 T02071075  RH  014%=      5-min Rain = 0
KSW1 212008Z 29006KT 21/M07 A2996 RMK A01 T02071073  RH  014%=      5-min Rain = 0
KSW1 212009Z 28010KT 21/M07 A2996 RMK A01 T02081072  RH  015%=      5-min Rain = 0
KSW1 212010Z 28008KT 21/M07 A2996 RMK A01 T02091070  RH  015%=      5-min Rain = 0
KSW1 212011Z 30007KT 21/M08 A2996 RMK A01 T02101076  RH  014%=      5-min Rain = 0
KSW1 212012Z 31007KT 21/M08 A2996 RMK A01 T02091079  RH  014%=      5-min Rain = 0
KSW1 212013Z 31008KT 21/M08 A2996 RMK A01 T02071075  RH  014%=      5-min Rain = 0
KSW1 212014Z 31007KT 21/M08 A2996 RMK A01 T02081078  RH  014%=      5-min Rain = 0
KSW1 212015Z 29008KT 21/M08 A2996 RMK A01 T02071077  RH  014%=      5-min Rain = 0
KSW1 212016Z 29006KT 21/M07 A2996 RMK A01 T02061074  RH  015%=      5-min Rain = 0
KSW1 212017Z 29006KT 21/M07 A2996 RMK A01 T02071074  RH  014%=      5-min Rain = 0
KSW1 212018Z 27007KT 21/M08 A2996 RMK A01 T02071076  RH  014%=      5-min Rain = 0
KSW1 212019Z 23005KT 21/M07 A2996 RMK A01 T02101070  RH  015%=      5-min Rain = 0
KSW1 212020Z 23008KT 21/M07 A2996 RMK A01 T02131071  RH  014%=      5-min Rain = 0
KSW1 212021Z 24009KT 21/M07 A2996 RMK A01 T02141072  RH  014%=      5-min Rain = 0
KSW1 212022Z 24007KT 21/M07 A2996 RMK A01 T02141073  RH  014%=      5-min Rain = 0
KSW1 212023Z 29008KT 21/M07 A2996 RMK A01 T02131074  RH  014%=      5-min Rain = 0
KSW1 212024Z 29009KT 21/M07 A2996 RMK A01 T02131072  RH  014%=      5-min Rain = 0
KSW1 212025Z 29007KT 21/M07 A2996 RMK A01 T02131073  RH  014%=      5-min Rain = 0
KSW1 212026Z 27006KT 21/M07 A2996 RMK A01 T02131071  RH  014%=      5-min Rain = 0
KSW1 212027Z 24006KT 21/M07 A2995 RMK A01 T02131073  RH  014%=      5-min Rain = 0
KSW1 212028Z 23006KT 21/M08 A2995 RMK A01 T02121076  RH  014%=      5-min Rain = 0
KSW1 212029Z 24006KT 21/M08 A2995 RMK A01 T02121075  RH  014%=      5-min Rain = 0
KSW1 212030Z 23005KT 21/M07 A2995 RMK A01 T02111074  RH  014%=      5-min Rain = 0
KSW1 212031Z 24006KT 21/M07 A2995 RMK A01 T02111070  RH  014%=      5-min Rain = 0
KSW1 212032Z 27008KT 21/M07 A2995 RMK A01 T02131069  RH  014%=      5-min Rain = 0
KSW1 212033Z 27005G10KT 21/M07 A2995 RMK A01 T02131073  RH  014%=      5-min Rain = 0
KSW1 212034Z 27006KT 21/M07 A2995 RMK A01 T02141065  RH  015%=      5-min Rain = 0
KSW1 212035Z 29008KT 22/M07 A2995 RMK A01 T02161067  RH  014%=      5-min Rain = 0
KSW1 212036Z 28009KT 22/M07 A2995 RMK A01 T02161067  RH  014%=      5-min Rain = 0
KSW1 212037Z 30009KT 22/M07 A2995 RMK A01 T02161069  RH  014%=      5-min Rain = 0
KSW1 212038Z 28008KT 22/M07 A2995 RMK A01 T02151070  RH  014%=      5-min Rain = 0
KSW1 212039Z 28006KT 21/M07 A2995 RMK A01 T02141074  RH  014%=      5-min Rain = 0
KSW1 212040Z 28009KT 21/M07 A2995 RMK A01 T02131071  RH  014%=      5-min Rain = 0
KSW1 212041Z 29008KT 21/M07 A2995 RMK A01 T02131072  RH  014%=      5-min Rain = 0
KSW1 212042Z 27009KT 21/M07 A2995 RMK A01 T02131072  RH  014%=      5-min Rain = 0
KSW1 212043Z 27006KT 21/M08 A2995 RMK A01 T02121075  RH  014%=      5-min Rain = 0
KSW1 212044Z 24004KT 21/M08 A2995 RMK A01 T02111076  RH  014%=      5-min Rain = 0
KSW1 212045Z 28004KT 21/M07 A2995 RMK A01 T02101072  RH  014%=      5-min Rain = 0
KSW1 212046Z 27003KT 21/M07 A2995 RMK A01 T02111073  RH  014%=      5-min Rain = 0
KSW1 212047Z 27005KT 21/M07 A2995 RMK A01 T02131069  RH  014%=      5-min Rain = 0
KSW1 212048Z 27004KT 21/M07 A2995 RMK A01 T02141074  RH  014%=      5-min Rain = 0
KSW1 212049Z 23004KT 22/M08 A2995 RMK A01 T02151075  RH  014%=      5-min Rain = 0
KSW1 212050Z 22003KT 22/M07 A2995 RMK A01 T02151072  RH  014%=      5-min Rain = 0
KSW1 212051Z 22007KT 22/M07 A2995 RMK A01 T02171066  RH  014%=      5-min Rain = 0
KSW1 212052Z 22005KT 22/M07 A2995 RMK A01 T02201070  RH  014%=      5-min Rain = 0
KSW1 212053Z 24005KT 22/M07 A2995 RMK A01 T02211071  RH  014%=      5-min Rain = 0
KSW1 212054Z 29007KT 22/M07 A2995 RMK A01 T02211067  RH  014%=      5-min Rain = 0
KSW1 212055Z 31008KT 22/M07 A2995 RMK A01 T02221068  RH  014%=      5-min Rain = 0
KSW1 212056Z 29008KT 22/M07 A2995 RMK A01 T02211068  RH  014%=      5-min Rain = 0
KSW1 212057Z 30006KT 22/M07 A2995 RMK A01 T02201073  RH  013%=      5-min Rain = 0
KSW1 212058Z 29007KT 22/M07 A2995 RMK A01 T02191072  RH  014%=      5-min Rain = 0
KSW1 212059Z 28007KT 22/M07 A2995 RMK A01 T02201070  RH  014%=      5-min Rain = 0
KSW1 212100Z 29008KT 22/M08 A2995 RMK A01 T02201079  RH  013%=      5-min Rain = 0
KSW1 212101Z 32005KT 22/M08 A2995 RMK A01 T02171078  RH  013%=      5-min Rain = 0
KSW1 212102Z 29005KT 22/M08 A2995 RMK A01 T02171077  RH  013%=      5-min Rain = 0
KSW1 212103Z 26007KT 22/M07 A2995 RMK A01 T02171074  RH  014%=      5-min Rain = 0
KSW1 212104Z 27008KT 22/M07 A2995 RMK A01 T02191070  RH  014%=      5-min Rain = 0
KSW1 212105Z 24007KT 22/M07 A2995 RMK A01 T02231065  RH  014%=      5-min Rain = 0
KSW1 212106Z 23009KT 23/M07 A2995 RMK A01 T02261074  RH  013%=      5-min Rain = 0
KSW1 212107Z 24006KT 22/M08 A2995 RMK A01 T02241080  RH  012%=      5-min Rain = 0
KSW1 212108Z 26004KT 22/M08 A2995 RMK A01 T02201080  RH  013%=      5-min Rain = 0
KSW1 212109Z 28005KT 22/M07 A2995 RMK A01 T02201074  RH  013%=      5-min Rain = 0
KSW1 212110Z 27005KT 22/M08 A2995 RMK A01 T02211075  RH  013%=      5-min Rain = 0
KSW1 212111Z 28005KT 22/M08 A2995 RMK A01 T02211080  RH  013%=      5-min Rain = 0
KSW1 212112Z 23002KT 22/M09 A2994 RMK A01 T02201085  RH  012%=      5-min Rain = 0
KSW1 212113Z 23004KT 22/M08 A2995 RMK A01 T02201080  RH  013%=      5-min Rain = 0
KSW1 212114Z 28006KT 22/M08 A2995 RMK A01 T02201076  RH  013%=      5-min Rain = 0
KSW1 212115Z 25008KT 22/M07 A2995 RMK A01 T02231073  RH  013%=      5-min Rain = 0
KSW1 212116Z 24010KT 23/M08 A2995 RMK A01 T02251078  RH  013%=      5-min Rain = 0
KSW1 212117Z 24010KT 23/M08 A2995 RMK A01 T02251079  RH  012%=      5-min Rain = 0
KSW1 212118Z 26010KT 22/M08 A2995 RMK A01 T02231080  RH  012%=      5-min Rain = 0
KSW1 212119Z 26007KT 22/M08 A2995 RMK A01 T02231075  RH  013%=      5-min Rain = 0
KSW1 212120Z 26006KT 22/M08 A2995 RMK A01 T02231080  RH  012%=      5-min Rain = 0
KSW1 212121Z 28006KT 22/M08 A2994 RMK A01 T02231081  RH  012%=      5-min Rain = 0
KSW1 212122Z 27005KT 22/M08 A2994 RMK A01 T02231075  RH  013%=      5-min Rain = 0
KSW1 212123Z 23006G11KT 23/M07 A2994 RMK A01 T02261074  RH  013%=      5-min Rain = 0
KSW1 212124Z 23008KT 23/M08 A2994 RMK A01 T02271080  RH  012%=      5-min Rain = 0
KSW1 212125Z 22007KT 23/M08 A2995 RMK A01 T02271078  RH  012%=      5-min Rain = 0
KSW1 212126Z 24007KT 23/M08 A2995 RMK A01 T02261081  RH  012%=      5-min Rain = 0
KSW1 212127Z 27005KT 23/M08 A2995 RMK A01 T02261075  RH  013%=      5-min Rain = 0
KSW1 212128Z 30011KT 23/M07 A2995 RMK A01 T02281074  RH  013%=      5-min Rain = 0
KSW1 212129Z 27011KT 23/M07 A2995 RMK A01 T02281074  RH  013%=      5-min Rain = 0
KSW1 212130Z 27009G14KT 23/M08 A2995 RMK A01 T02271075  RH  013%=      5-min Rain = 0
KSW1 212131Z 26009KT 23/M08 A2995 RMK A01 T02271075  RH  013%=      5-min Rain = 0
KSW1 212132Z 26008KT 23/M08 A2995 RMK A01 T02271080  RH  012%=      5-min Rain = 0
KSW1 212133Z 27005KT 23/M08 A2995 RMK A01 T02261084  RH  012%=      5-min Rain = 0
KSW1 212134Z 26005KT 23/M08 A2995 RMK A01 T02261076  RH  013%=      5-min Rain = 0
KSW1 212135Z 27006KT 23/M07 A2995 RMK A01 T02281071  RH  013%=      5-min Rain = 0
KSW1 212136Z 25010KT 23/M07 A2995 RMK A01 T02301074  RH  013%=      5-min Rain = 0
KSW1 212137Z 24009KT 23/M09 A2995 RMK A01 T02301088  RH  011%=      5-min Rain = 0
KSW1 212138Z 25009KT 23/M09 A2995 RMK A01 T02281089  RH  011%=      5-min Rain = 0
KSW1 212139Z 24009KT 23/M09 A2995 RMK A01 T02261088  RH  012%=      5-min Rain = 0
KSW1 212140Z 22009KT 23/M09 A2995 RMK A01 T02261087  RH  012%=      5-min Rain = 0
KSW1 212141Z 23008KT 23/M09 A2995 RMK A01 T02271088  RH  011%=      5-min Rain = 0
KSW1 212142Z 24009KT 23/M09 A2995 RMK A01 T02271086  RH  012%=      5-min Rain = 0
KSW1 212143Z 27009KT 23/M08 A2995 RMK A01 T02281084  RH  012%=      5-min Rain = 0
KSW1 212144Z 28009KT 23/M08 A2995 RMK A01 T02301081  RH  012%=      5-min Rain = 0
KSW1 212145Z 28010KT 23/M08 A2995 RMK A01 T02301082  RH  012%=      5-min Rain = 0
KSW1 212146Z 28009KT 23/M09 A2995 RMK A01 T02301088  RH  011%=      5-min Rain = 0
KSW1 212147Z 24011KT 23/M09 A2995 RMK A01 T02291090  RH  011%=      5-min Rain = 0
KSW1 212148Z 26011KT 23/M09 A2995 RMK A01 T02291093  RH  011%=      5-min Rain = 0
KSW1 212149Z 27009KT 23/M10 A2994 RMK A01 T02281097  RH  011%=      5-min Rain = 0
KSW1 212150Z 27009G15KT 23/M09 A2994 RMK A01 T02281092  RH  011%=      5-min Rain = 0
KSW1 212151Z 27012KT 23/M10 A2994 RMK A01 T02291097  RH  011%=      5-min Rain = 0
KSW1 212152Z 25011KT 23/M10 A2994 RMK A01 T02281101  RH  010%=      5-min Rain = 0
KSW1 212153Z 28013KT 23/M10 A2994 RMK A01 T02271098  RH  011%=      5-min Rain = 0
KSW1 212154Z 27010KT 23/M10 A2994 RMK A01 T02271102  RH  010%=      5-min Rain = 0
KSW1 212155Z 27011KT 23/M10 A2994 RMK A01 T02271097  RH  011%=      5-min Rain = 0
KSW1 212156Z 28010KT 23/M10 A2994 RMK A01 T02281097  RH  011%=      5-min Rain = 0
KSW1 212157Z 28012KT 23/M10 A2994 RMK A01 T02291098  RH  010%=      5-min Rain = 0
KSW1 212158Z 29013KT 23/M10 A2994 RMK A01 T02291101  RH  010%=      5-min Rain = 0
KSW1 212159Z 28012KT 23/M10 A2994 RMK A01 T02281102  RH  010%=      5-min Rain = 0
KSW1 212200Z 29012KT 23/M10 A2994 RMK A01 T02271100  RH  010%=      5-min Rain = 0
KSW1 212201Z 27010KT 23/M10 A2994 RMK A01 T02281101  RH  010%=      5-min Rain = 0
KSW1 212202Z 27009KT 23/M10 A2994 RMK A01 T02271100  RH  010%=      5-min Rain = 0
KSW1 212203Z 27008G13KT 23/M10 A2994 RMK A01 T02281101  RH  010%=      5-min Rain = 0
KSW1 212204Z 27010KT 23/M10 A2995 RMK A01 T02281100  RH  010%=      5-min Rain = 0
KSW1 212205Z 28010KT 23/M10 A2995 RMK A01 T02281098  RH  010%=      5-min Rain = 0
KSW1 212206Z 27006KT 23/M10 A2994 RMK A01 T02281098  RH  011%=      5-min Rain = 0
KSW1 212207Z 27007KT 23/M09 A2995 RMK A01 T02291092  RH  011%=      5-min Rain = 0
KSW1 212208Z 26009KT 23/M10 A2994 RMK A01 T02301095  RH  011%=      5-min Rain = 0
KSW1 212209Z 25008KT 23/M10 A2994 RMK A01 T02301096  RH  011%=      5-min Rain = 0
KSW1 212210Z 25010KT 23/M10 A2994 RMK A01 T02301095  RH  011%=      5-min Rain = 0
KSW1 212211Z 25012KT 23/M10 A2994 RMK A01 T02311098  RH  010%=      5-min Rain = 0
KSW1 212212Z 27013G19KT 23/M10 A2994 RMK A01 T02301101  RH  010%=      5-min Rain = 0
KSW1 212213Z 28013KT 23/M10 A2994 RMK A01 T02291103  RH  010%=      5-min Rain = 0
KSW1 212214Z 26011KT 23/M10 A2994 RMK A01 T02281104  RH  010%=      5-min Rain = 0
KSW1 212215Z 27009KT 23/M11 A2995 RMK A01 T02271105  RH  010%=      5-min Rain = 0
KSW1 212216Z 27008KT 23/M10 A2995 RMK A01 T02261102  RH  010%=      5-min Rain = 0
KSW1 212217Z 27012KT 23/M10 A2995 RMK A01 T02271101  RH  010%=      5-min Rain = 0
KSW1 212218Z 28010KT 23/M10 A2995 RMK A01 T02271103  RH  010%=      5-min Rain = 0
KSW1 212219Z 27008KT 23/M10 A2995 RMK A01 T02271095  RH  011%=      5-min Rain = 0
KSW1 212220Z 26007KT 23/M09 A2995 RMK A01 T02291092  RH  011%=      5-min Rain = 0
KSW1 212221Z 26009KT 23/M10 A2995 RMK A01 T02311098  RH  010%=      5-min Rain = 0
KSW1 212222Z 27009KT 23/M10 A2994 RMK A01 T02301101  RH  010%=      5-min Rain = 0
KSW1 212223Z 27011KT 23/M10 A2994 RMK A01 T02291102  RH  010%=      5-min Rain = 0
KSW1 212224Z 27012KT 23/M10 A2994 RMK A01 T02281101  RH  010%=      5-min Rain = 0
KSW1 212225Z 27008KT 23/M10 A2994 RMK A01 T02271103  RH  010%=      5-min Rain = 0
KSW1 212226Z 27010KT 23/M10 A2994 RMK A01 T02271100  RH  010%=      5-min Rain = 0
KSW1 212227Z 28011KT 23/M10 A2994 RMK A01 T02271103  RH  010%=      5-min Rain = 0
KSW1 212228Z 28010KT 23/M10 A2994 RMK A01 T02261104  RH  010%=      5-min Rain = 0
KSW1 212229Z 28007KT 23/M11 A2994 RMK A01 T02251107  RH  010%=      5-min Rain = 0
KSW1 212230Z 28006KT 23/M11 A2994 RMK A01 T02251107  RH  010%=      5-min Rain = 0
KSW1 212231Z 27006KT 23/M10 A2994 RMK A01 T02251103  RH  010%=      5-min Rain = 0
KSW1 212232Z 26006KT 23/M10 A2995 RMK A01 T02251101  RH  010%=      5-min Rain = 0
KSW1 212233Z 24007KT 23/M10 A2995 RMK A01 T02261100  RH  010%=      5-min Rain = 0
KSW1 212234Z 25008KT 23/M10 A2995 RMK A01 T02271096  RH  011%=      5-min Rain = 0
KSW1 212235Z 24009KT 23/M10 A2995 RMK A01 T02281098  RH  011%=      5-min Rain = 0
KSW1 212236Z 25009KT 23/M10 A2995 RMK A01 T02281100  RH  010%=      5-min Rain = 0
KSW1 212237Z 26009KT 23/M10 A2995 RMK A01 T02271102  RH  010%=      5-min Rain = 0
KSW1 212238Z 26010KT 23/M10 A2995 RMK A01 T02271101  RH  010%=      5-min Rain = 0
KSW1 212239Z 24010KT 23/M10 A2995 RMK A01 T02261101  RH  010%=      5-min Rain = 0
KSW1 212240Z 25009KT 23/M10 A2995 RMK A01 T02261100  RH  010%=      5-min Rain = 0
KSW1 212241Z 24008KT 23/M10 A2995 RMK A01 T02261098  RH  011%=      5-min Rain = 0
KSW1 212242Z 24009KT 23/M10 A2995 RMK A01 T02261100  RH  010%=      5-min Rain = 0
KSW1 212243Z 25009KT 23/M10 A2995 RMK A01 T02261102  RH  010%=      5-min Rain = 0
KSW1 212244Z 25006KT 23/M10 A2995 RMK A01 T02261103  RH  010%=      5-min Rain = 0
KSW1 212245Z 24006KT 23/M10 A2995 RMK A01 T02251102  RH  010%=      5-min Rain = 0
KSW1 212246Z 24006KT 23/M10 A2994 RMK A01 T02261100  RH  010%=      5-min Rain = 0
KSW1 212247Z 24005KT 23/M10 A2994 RMK A01 T02261100  RH  010%=      5-min Rain = 0
KSW1 212248Z 24007KT 23/M10 A2994 RMK A01 T02261099  RH  011%=      5-min Rain = 0
KSW1 212249Z 24008KT 23/M10 A2994 RMK A01 T02261098  RH  011%=      5-min Rain = 0
KSW1 212250Z 23009KT 23/M10 A2994 RMK A01 T02261098  RH  011%=      5-min Rain = 0
KSW1 212251Z 25010KT 23/M09 A2994 RMK A01 T02261093  RH  011%=      5-min Rain = 0
KSW1 212252Z 26008KT 23/M09 A2994 RMK A01 T02261092  RH  011%=      5-min Rain = 0
KSW1 212253Z 27008KT 23/M10 A2994 RMK A01 T02261095  RH  011%=      5-min Rain = 0
KSW1 212254Z 27007KT 23/M10 A2994 RMK A01 T02261098  RH  011%=      5-min Rain = 0
KSW1 212255Z 28008KT 23/M10 A2994 RMK A01 T02251096  RH  011%=      5-min Rain = 0
KSW1 212256Z 28007KT 23/M10 A2994 RMK A01 T02251098  RH  011%=      5-min Rain = 0
KSW1 212257Z 28007KT 23/M10 A2994 RMK A01 T02251100  RH  011%=      5-min Rain = 0
KSW1 212258Z 27005KT 23/M10 A2994 RMK A01 T02251100  RH  011%=      5-min Rain = 0
KSW1 212259Z 27006KT 23/M10 A2994 RMK A01 T02251100  RH  011%=      5-min Rain = 0
KSW1 212300Z 27006KT 22/M10 A2994 RMK A01 T02241102  RH  010%=      5-min Rain = 0
KSW1 212301Z 27006KT 22/M10 A2994 RMK A01 T02241099  RH  011%=      5-min Rain = 0
KSW1 212302Z 27005KT 22/M10 A2994 RMK A01 T02241098  RH  011%=      5-min Rain = 0
KSW1 212303Z 26004KT 22/M10 A2994 RMK A01 T02241095  RH  011%=      5-min Rain = 0
KSW1 212304Z 26005KT 22/M10 A2994 RMK A01 T02241101  RH  011%=      5-min Rain = 0
KSW1 212305Z 27004KT 22/M10 A2994 RMK A01 T02241097  RH  011%=      5-min Rain = 0
KSW1 212306Z 25003KT 22/M09 A2994 RMK A01 T02241094  RH  011%=      5-min Rain = 0
KSW1 212307Z 27004KT 22/M10 A2995 RMK A01 T02241096  RH  011%=      5-min Rain = 0
KSW1 212308Z 27006KT 23/M09 A2995 RMK A01 T02251094  RH  011%=      5-min Rain = 0
KSW1 212309Z 27006KT 23/M09 A2995 RMK A01 T02251094  RH  011%=      5-min Rain = 0
KSW1 212310Z 26008KT 22/M10 A2995 RMK A01 T02241097  RH  011%=      5-min Rain = 0
KSW1 212311Z 26007KT 22/M10 A2995 RMK A01 T02231097  RH  011%=      5-min Rain = 0
KSW1 212312Z 26005KT 22/M09 A2995 RMK A01 T02231091  RH  011%=      5-min Rain = 0
KSW1 212313Z 27006KT 22/M09 A2995 RMK A01 T02231088  RH  012%=      5-min Rain = 0
KSW1 212314Z 28006KT 22/M10 A2995 RMK A01 T02231096  RH  011%=      5-min Rain = 0
KSW1 212315Z 26007KT 22/M09 A2995 RMK A01 T02231094  RH  011%=      5-min Rain = 0
KSW1 212316Z 26008KT 22/M10 A2995 RMK A01 T02221097  RH  011%=      5-min Rain = 0
KSW1 212317Z 26006KT 22/M10 A2995 RMK A01 T02221095  RH  011%=      5-min Rain = 0
KSW1 212318Z 26006KT 22/M09 A2995 RMK A01 T02221092  RH  011%=      5-min Rain = 0
KSW1 212319Z 25007KT 22/M09 A2995 RMK A01 T02211091  RH  012%=      5-min Rain = 0
KSW1 212320Z 25006KT 22/M09 A2995 RMK A01 T02211090  RH  012%=      5-min Rain = 0
KSW1 212321Z 25006KT 22/M09 A2995 RMK A01 T02201087  RH  012%=      5-min Rain = 0
KSW1 212322Z 26005KT 22/M09 A2995 RMK A01 T02201087  RH  012%=      5-min Rain = 0
KSW1 212323Z 26005KT 22/M08 A2995 RMK A01 T02191084  RH  012%=      5-min Rain = 0
KSW1 212324Z 26005KT 22/M08 A2995 RMK A01 T02191081  RH  013%=      5-min Rain = 0
KSW1 212325Z 26006KT 22/M08 A2995 RMK A01 T02181079  RH  013%=      5-min Rain = 0
KSW1 212326Z 26005KT 22/M08 A2995 RMK A01 T02181082  RH  013%=      5-min Rain = 0
KSW1 212327Z 25005KT 22/M08 A2995 RMK A01 T02171082  RH  013%=      5-min Rain = 0
KSW1 212328Z 25006KT 22/M08 A2995 RMK A01 T02171083  RH  013%=      5-min Rain = 0
KSW1 212329Z 26006KT 22/M09 A2995 RMK A01 T02171085  RH  012%=      5-min Rain = 0
KSW1 212330Z 26005KT 22/M08 A2995 RMK A01 T02161082  RH  013%=      5-min Rain = 0
KSW1 212331Z 26005KT 22/M08 A2995 RMK A01 T02161082  RH  013%=      5-min Rain = 0
KSW1 212332Z 25006KT 22/M08 A2995 RMK A01 T02161082  RH  013%=      5-min Rain = 0
KSW1 212333Z 26006KT 22/M08 A2995 RMK A01 T02151081  RH  013%=      5-min Rain = 0
KSW1 212334Z 26006KT 21/M08 A2996 RMK A01 T02141083  RH  013%=      5-min Rain = 0
KSW1 212335Z 27005KT 21/M08 A2996 RMK A01 T02141079  RH  013%=      5-min Rain = 0
KSW1 212336Z 27005KT 21/M08 A2996 RMK A01 T02131078  RH  013%=      5-min Rain = 0
KSW1 212337Z 27007G12KT 21/M08 A2996 RMK A01 T02131082  RH  013%=      5-min Rain = 0
KSW1 212338Z 27007KT 21/M08 A2996 RMK A01 T02131083  RH  013%=      5-min Rain = 0
KSW1 212339Z 28008KT 21/M09 A2996 RMK A01 T02121087  RH  013%=      5-min Rain = 0
KSW1 212340Z 27008KT 21/M09 A2996 RMK A01 T02131086  RH  013%=      5-min Rain = 0
KSW1 212341Z 28008KT 21/M09 A2996 RMK A01 T02131089  RH  012%=      5-min Rain = 0
KSW1 212342Z 28008KT 21/M09 A2996 RMK A01 T02131088  RH  012%=      5-min Rain = 0
KSW1 212343Z 29008KT 21/M09 A2996 RMK A01 T02141088  RH  012%=      5-min Rain = 0
KSW1 212344Z 28007KT 21/M09 A2996 RMK A01 T02131086  RH  013%=      5-min Rain = 0
KSW1 212345Z 29006KT 21/M09 A2996 RMK A01 T02131085  RH  013%=      5-min Rain = 0
KSW1 212346Z 29006KT 21/M08 A2996 RMK A01 T02121082  RH  013%=      5-min Rain = 0
KSW1 212347Z 29007KT 21/M08 A2996 RMK A01 T02111083  RH  013%=      5-min Rain = 0
KSW1 212348Z 30009KT 21/M08 A2996 RMK A01 T02101083  RH  013%=      5-min Rain = 0
KSW1 212349Z 30009KT 21/M08 A2996 RMK A01 T02101084  RH  013%=      5-min Rain = 0
KSW1 212350Z 30010KT 21/M09 A2996 RMK A01 T02101086  RH  013%=      5-min Rain = 0
KSW1 212351Z 30008KT 21/M09 A2996 RMK A01 T02111085  RH  013%=      5-min Rain = 0
KSW1 212352Z 30008KT 21/M09 A2996 RMK A01 T02111085  RH  013%=      5-min Rain = 0
KSW1 212353Z 30008KT 21/M09 A2996 RMK A01 T02101086  RH  013%=      5-min Rain = 0
KSW1 212354Z 30008KT 21/M08 A2996 RMK A01 T02101084  RH  013%=      5-min Rain = 0
KSW1 212355Z 30008KT 21/M09 A2996 RMK A01 T02091086  RH  013%=      5-min Rain = 0
KSW1 212356Z 30009KT 21/M09 A2996 RMK A01 T02091086  RH  013%=      5-min Rain = 0
KSW1 212357Z 30009KT 21/M09 A2996 RMK A01 T02091086  RH  013%=      5-min Rain = 0
KSW1 212358Z 31009KT 21/M09 A2996 RMK A01 T02081086  RH  013%=      5-min Rain = 0
KSW1 212359Z 31008KT 21/M09 A2996 RMK A01 T02081086  RH  013%=      5-min Rain = 0
KSW1 220000Z 31009KT 21/M09 A2997 RMK A01 T02081085  RH  013%=      5-min Rain = 0
KSW1 220001Z 30008KT 21/M09 A2997 RMK A01 T02071085  RH  013%=      5-min Rain = 0
KSW1 220002Z 30009KT 21/M09 A2997 RMK A01 T02061085  RH  013%=      5-min Rain = 0
KSW1 220003Z 31008KT 21/M09 A2997 RMK A01 T02051085  RH  013%=      5-min Rain = 0
KSW1 220004Z 30007KT 20/M09 A2997 RMK A01 T02041085  RH  013%=      5-min Rain = 0
KSW1 220005Z 30007KT 20/M08 A2997 RMK A01 T02041083  RH  014%=      5-min Rain = 0
KSW1 220006Z 31007KT 20/M08 A2997 RMK A01 T02031083  RH  014%=      5-min Rain = 0
KSW1 220007Z 31007KT 20/M08 A2997 RMK A01 T02021083  RH  014%=      5-min Rain = 0
KSW1 220008Z 30006KT 20/M08 A2997 RMK A01 T02011082  RH  014%=      5-min Rain = 0
KSW1 220009Z 31007KT 20/M08 A2997 RMK A01 T02001082  RH  014%=      5-min Rain = 0
KSW1 220010Z 31007KT 20/M08 A2997 RMK A01 T01981081  RH  014%=      5-min Rain = 0
KSW1 220011Z 31007KT 20/M08 A2997 RMK A01 T01981083  RH  014%=      5-min Rain = 0
KSW1 220012Z 31007KT 20/M08 A2997 RMK A01 T01981083  RH  014%=      5-min Rain = 0
KSW1 220013Z 31007KT 20/M08 A2998 RMK A01 T01971083  RH  014%=      5-min Rain = 0
KSW1 220014Z 31007KT 20/M08 A2998 RMK A01 T01971082  RH  014%=      5-min Rain = 0
KSW1 220015Z 31007KT 20/M08 A2998 RMK A01 T01971082  RH  014%=      5-min Rain = 0
KSW1 220016Z 31006KT 20/M08 A2998 RMK A01 T01961083  RH  014%=      5-min Rain = 0
KSW1 220017Z 31006KT 20/M08 A2997 RMK A01 T01951083  RH  014%=      5-min Rain = 0
KSW1 220018Z 31006KT 20/M08 A2997 RMK A01 T01951082  RH  015%=      5-min Rain = 0
KSW1 220019Z 31006KT 19/M08 A2997 RMK A01 T01941081  RH  015%=      5-min Rain = 0
KSW1 220020Z 31006KT 19/M08 A2997 RMK A01 T01931081  RH  015%=      5-min Rain = 0
KSW1 220021Z 31006KT 19/M08 A2997 RMK A01 T01921081  RH  015%=      5-min Rain = 0
KSW1 220022Z 31006KT 19/M08 A2998 RMK A01 T01911080  RH  015%=      5-min Rain = 0
KSW1 220023Z 31006KT 19/M08 A2998 RMK A01 T01891080  RH  015%=      5-min Rain = 0
KSW1 220024Z 31006KT 19/M08 A2998 RMK A01 T01881079  RH  016%=      5-min Rain = 0
KSW1 220025Z 31007KT 19/M08 A2998 RMK A01 T01871080  RH  016%=      5-min Rain = 0
KSW1 220026Z 31007KT 19/M08 A2998 RMK A01 T01861081  RH  015%=      5-min Rain = 0
KSW1 220027Z 30007KT 19/M08 A2998 RMK A01 T01861082  RH  015%=      5-min Rain = 0
KSW1 220028Z 31007KT 19/M08 A2998 RMK A01 T01871082  RH  015%=      5-min Rain = 0
KSW1 220029Z 31007KT 19/M08 A2998 RMK A01 T01861082  RH  015%=      5-min Rain = 0
KSW1 220030Z 31006KT 19/M08 A2998 RMK A01 T01861082  RH  015%=      5-min Rain = 0
KSW1 220031Z 31007KT 19/M08 A2998 RMK A01 T01871082  RH  015%=      5-min Rain = 0
KSW1 220032Z 31006KT 19/M08 A2998 RMK A01 T01861082  RH  015%=      5-min Rain = 0
KSW1 220033Z 31006KT 19/M08 A2998 RMK A01 T01861082  RH  015%=      5-min Rain = 0
KSW1 220034Z 31006KT 19/M08 A2998 RMK A01 T01861083  RH  015%=      5-min Rain = 0
KSW1 220035Z 31006KT 19/M08 A2998 RMK A01 T01861084  RH  015%=      5-min Rain = 0
KSW1 220036Z 32006KT 19/M08 A2998 RMK A01 T01851084  RH  015%=      5-min Rain = 0
KSW1 220037Z 32007KT 19/M08 A2998 RMK A01 T01851083  RH  015%=      5-min Rain = 0
KSW1 220038Z 32007KT 18/M08 A2998 RMK A01 T01841082  RH  016%=      5-min Rain = 0
KSW1 220039Z 32007KT 18/M08 A2998 RMK A01 T01831083  RH  016%=      5-min Rain = 0
KSW1 220040Z 32007KT 18/M08 A2998 RMK A01 T01821083  RH  016%=      5-min Rain = 0
KSW1 220041Z 32007KT 18/M08 A2998 RMK A01 T01821083  RH  016%=      5-min Rain = 0
KSW1 220042Z 32007KT 18/M08 A2998 RMK A01 T01811083  RH  016%=      5-min Rain = 0
KSW1 220043Z 32007KT 18/M08 A2998 RMK A01 T01811082  RH  016%=      5-min Rain = 0
KSW1 220044Z 32007KT 18/M08 A2998 RMK A01 T01801083  RH  016%=      5-min Rain = 0
KSW1 220045Z 32007KT 18/M08 A2998 RMK A01 T01791083  RH  016%=      5-min Rain = 0
KSW1 220046Z 32007KT 18/M08 A2998 RMK A01 T01791083  RH  016%=      5-min Rain = 0
KSW1 220047Z 32007KT 18/M08 A2999 RMK A01 T01781083  RH  016%=      5-min Rain = 0
KSW1 220048Z 32007KT 18/M08 A2999 RMK A01 T01781083  RH  016%=      5-min Rain = 0
KSW1 220049Z 32008KT 18/M08 A2999 RMK A01 T01781084  RH  016%=      5-min Rain = 0
KSW1 220050Z 32008KT 18/M08 A2999 RMK A01 T01781084  RH  016%=      5-min Rain = 0
KSW1 220051Z 32007KT 18/M08 A2999 RMK A01 T01781083  RH  016%=      5-min Rain = 0
KSW1 220052Z 31007KT 18/M08 A2999 RMK A01 T01781084  RH  016%=      5-min Rain = 0
KSW1 220053Z 31007KT 18/M08 A2999 RMK A01 T01781084  RH  016%=      5-min Rain = 0
KSW1 220054Z 31007KT 18/M08 A2999 RMK A01 T01781084  RH  016%=      5-min Rain = 0
KSW1 220055Z 31007KT 18/M08 A2999 RMK A01 T01781084  RH  016%=      5-min Rain = 0
KSW1 220056Z 31006KT 18/M08 A2999 RMK A01 T01781084  RH  016%=      5-min Rain = 0
KSW1 220057Z 31007KT 18/M08 A2999 RMK A01 T01781083  RH  016%=      5-min Rain = 0
KSW1 220058Z 31007KT 18/M08 A2999 RMK A01 T01781083  RH  016%=      5-min Rain = 0
KSW1 220059Z 31006KT 18/M08 A2999 RMK A01 T01771082  RH  016%=      5-min Rain = 0
KSW1 220100Z 31007KT 18/M08 A2999 RMK A01 T01771082  RH  016%=      5-min Rain = 0
KSW1 220101Z 31006KT 18/M08 A2999 RMK A01 T01771081  RH  016%=      5-min Rain = 0
KSW1 220102Z 31006KT 18/M08 A2999 RMK A01 T01761081  RH  016%=      5-min Rain = 0
KSW1 220103Z 31006KT 18/M08 A2999 RMK A01 T01751083  RH  016%=      5-min Rain = 0
KSW1 220104Z 31006KT 18/M08 A2999 RMK A01 T01751083  RH  016%=      5-min Rain = 0
KSW1 220105Z 31006KT 18/M08 A2999 RMK A01 T01751083  RH  016%=      5-min Rain = 0
KSW1 220106Z 31006KT 17/M08 A30 RMK A01 T01741082  RH  017%=      5-min Rain = 0
KSW1 220107Z 31006KT 17/M08 A30 RMK A01 T01741082  RH  017%=      5-min Rain = 0
KSW1 220108Z 31006KT 17/M08 A30 RMK A01 T01731082  RH  017%=      5-min Rain = 0
KSW1 220109Z 32006KT 17/M08 A30 RMK A01 T01721083  RH  017%=      5-min Rain = 0
KSW1 220110Z 00008KT 17/M08 A30 RMK A01 T01721083  RH  017%=      5-min Rain = 0
KSW1 220111Z 02011KT 17/M08 A3001 RMK A01 T01711082  RH  017%=      5-min Rain = 0
KSW1 220112Z 03010KT 17/M08 A3001 RMK A01 T01681076  RH  018%=      5-min Rain = 0
KSW1 220113Z 03011KT 16/M07 A3001 RMK A01 T01641069  RH  020%=      5-min Rain = 0
KSW1 220114Z 03011KT 16/M06 A3001 RMK A01 T01591064  RH  021%=      5-min Rain = 0
KSW1 220115Z 04010KT 16/M06 A3001 RMK A01 T01561062  RH  022%=      5-min Rain = 0
KSW1 220116Z 03010KT 15/M06 A3001 RMK A01 T01531059  RH  023%=      5-min Rain = 0
KSW1 220117Z 04011KT 15/M06 A3001 RMK A01 T01511057  RH  023%=      5-min Rain = 0
KSW1 220118Z 05011KT 15/M06 A3001 RMK A01 T01491055  RH  024%=      5-min Rain = 0
KSW1 220119Z 05011KT 15/M05 A3001 RMK A01 T01491054  RH  024%=      5-min Rain = 0
KSW1 220120Z 06013KT 15/M05 A3001 RMK A01 T01491053  RH  024%=      5-min Rain = 0
KSW1 220121Z 06013KT 15/M05 A3001 RMK A01 T01531052  RH  024%=      5-min Rain = 0
KSW1 220122Z 06013KT 16/M05 A3001 RMK A01 T01561051  RH  024%=      5-min Rain = 0
KSW1 220123Z 06012KT 16/M05 A3001 RMK A01 T01571050  RH  024%=      5-min Rain = 0
KSW1 220124Z 06012KT 16/M05 A3001 RMK A01 T01561049  RH  024%=      5-min Rain = 0
KSW1 220125Z 05012KT 16/M05 A3001 RMK A01 T01551047  RH  025%=      5-min Rain = 0
KSW1 220126Z 05012KT 15/M05 A3002 RMK A01 T01531047  RH  025%=      5-min Rain = 0
KSW1 220127Z 05013KT 15/M05 A3002 RMK A01 T01531047  RH  025%=      5-min Rain = 0
KSW1 220128Z 05014KT 15/M05 A3002 RMK A01 T01531047  RH  025%=      5-min Rain = 0
KSW1 220129Z 06014KT 15/M05 A3002 RMK A01 T01521046  RH  025%=      5-min Rain = 0
KSW1 220130Z 05014KT 15/M05 A3002 RMK A01 T01511046  RH  025%=      5-min Rain = 0
KSW1 220131Z 05013KT 15/M05 A3002 RMK A01 T01511045  RH  025%=      5-min Rain = 0
KSW1 220132Z 05014KT 15/M05 A3003 RMK A01 T01511045  RH  026%=      5-min Rain = 0
KSW1 220133Z 05012KT 15/M04 A3003 RMK A01 T01511044  RH  026%=      5-min Rain = 0
KSW1 220134Z 05013KT 15/M04 A3003 RMK A01 T01491044  RH  026%=      5-min Rain = 0
KSW1 220135Z 05012KT 15/M04 A3003 RMK A01 T01481044  RH  026%=      5-min Rain = 0
KSW1 220136Z 05012KT 15/M04 A3003 RMK A01 T01481043  RH  026%=      5-min Rain = 0
KSW1 220137Z 05012KT 15/M04 A3003 RMK A01 T01471042  RH  027%=      5-min Rain = 0
KSW1 220138Z 05012KT 15/M04 A3003 RMK A01 T01461042  RH  027%=      5-min Rain = 0
KSW1 220139Z 05013KT 15/M04 A3004 RMK A01 T01461042  RH  027%=      5-min Rain = 0
KSW1 220140Z 05012KT 15/M04 A3004 RMK A01 T01461041  RH  027%=      5-min Rain = 0
KSW1 220141Z 05012KT 15/M04 A3004 RMK A01 T01461041  RH  027%=      5-min Rain = 0
KSW1 220142Z 05011KT 15/M04 A3004 RMK A01 T01461040  RH  027%=      5-min Rain = 0
KSW1 220143Z 05012KT 15/M04 A3004 RMK A01 T01451040  RH  028%=      5-min Rain = 0
KSW1 220144Z 05012KT 15/M04 A3004 RMK A01 T01451040  RH  028%=      5-min Rain = 0
KSW1 220145Z 05012KT 15/M04 A3005 RMK A01 T01451040  RH  028%=      5-min Rain = 0
KSW1 220146Z 05012KT 15/M04 A3005 RMK A01 T01451040  RH  027%=      5-min Rain = 0
KSW1 220147Z 05011KT 15/M04 A3005 RMK A01 T01461040  RH  028%=      5-min Rain = 0
KSW1 220148Z 05011KT 15/M04 A3005 RMK A01 T01461039  RH  028%=      5-min Rain = 0
KSW1 220149Z 06010KT 14/M04 A3005 RMK A01 T01441039  RH  028%=      5-min Rain = 0
KSW1 220150Z 06011KT 14/M04 A3005 RMK A01 T01431038  RH  028%=      5-min Rain = 0
KSW1 220151Z 06011KT 14/M04 A3005 RMK A01 T01421039  RH  028%=      5-min Rain = 0
KSW1 220152Z 06010KT 14/M04 A3005 RMK A01 T01411039  RH  028%=      5-min Rain = 0
KSW1 220153Z 06011KT 14/M04 A3005 RMK A01 T01401039  RH  029%=      5-min Rain = 0
KSW1 220154Z 06010KT 14/M04 A3005 RMK A01 T01391039  RH  029%=      5-min Rain = 0
KSW1 220155Z 07011KT 14/M04 A3005 RMK A01 T01381038  RH  029%=      5-min Rain = 0
KSW1 220156Z 07011KT 14/M04 A3004 RMK A01 T01371038  RH  029%=      5-min Rain = 0
KSW1 220157Z 07011KT 14/M04 A3004 RMK A01 T01361039  RH  029%=      5-min Rain = 0
KSW1 220158Z 07011KT 14/M04 A3005 RMK A01 T01371039  RH  029%=      5-min Rain = 0
KSW1 220159Z 06012KT 14/M04 A3005 RMK A01 T01381039  RH  029%=      5-min Rain = 0
KSW1 220200Z 06012KT 14/M04 A3005 RMK A01 T01391039  RH  029%=      5-min Rain = 0
KSW1 220201Z 06012KT 14/M04 A3005 RMK A01 T01391039  RH  029%=      5-min Rain = 0
KSW1 220202Z 07012KT 14/M04 A3005 RMK A01 T01391040  RH  029%=      5-min Rain = 0
KSW1 220203Z 07012KT 14/M04 A3005 RMK A01 T01391040  RH  029%=      5-min Rain = 0
KSW1 220204Z 07011KT 14/M04 A3005 RMK A01 T01391040  RH  029%=      5-min Rain = 0
KSW1 220205Z 07011KT 14/M04 A3005 RMK A01 T01391040  RH  029%=      5-min Rain = 0
KSW1 220206Z 07011KT 14/M04 A3005 RMK A01 T01381040  RH  029%=      5-min Rain = 0
KSW1 220207Z 07011KT 14/M04 A3005 RMK A01 T01371040  RH  029%=      5-min Rain = 0
KSW1 220208Z 07011KT 14/M04 A3005 RMK A01 T01361040  RH  029%=      5-min Rain = 0
KSW1 220209Z 07010KT 14/M04 A3005 RMK A01 T01351040  RH  029%=      5-min Rain = 0
KSW1 220210Z 07011KT 14/M04 A3005 RMK A01 T01351040  RH  029%=      5-min Rain = 0
KSW1 220211Z 07011KT 14/M04 A3005 RMK A01 T01351040  RH  029%=      5-min Rain = 0
KSW1 220212Z 07011KT 13/M04 A3005 RMK A01 T01341040  RH  029%=      5-min Rain = 0
KSW1 220213Z 07011KT 13/M04 A3005 RMK A01 T01341041  RH  029%=      5-min Rain = 0
KSW1 220214Z 07011KT 13/M04 A3005 RMK A01 T01341040  RH  030%=      5-min Rain = 0
KSW1 220215Z 07011KT 13/M04 A3005 RMK A01 T01331040  RH  030%=      5-min Rain = 0
KSW1 220216Z 07011KT 13/M04 A3005 RMK A01 T01321040  RH  030%=      5-min Rain = 0
KSW1 220217Z 07012KT 13/M04 A3005 RMK A01 T01311040  RH  030%=      5-min Rain = 0
KSW1 220218Z 07011KT 13/M04 A3006 RMK A01 T01301040  RH  030%=      5-min Rain = 0
KSW1 220219Z 07011KT 13/M04 A3006 RMK A01 T01291040  RH  031%=      5-min Rain = 0
KSW1 220220Z 07011KT 13/M04 A3006 RMK A01 T01281040  RH  031%=      5-min Rain = 0
KSW1 220221Z 07011KT 13/M04 A3006 RMK A01 T01281040  RH  031%=      5-min Rain = 0
KSW1 220222Z 07011KT 13/M04 A3006 RMK A01 T01281040  RH  031%=      5-min Rain = 0
KSW1 220223Z 07011KT 13/M04 A3006 RMK A01 T01281040  RH  031%=      5-min Rain = 0
KSW1 220224Z 07011KT 13/M04 A3006 RMK A01 T01271040  RH  031%=      5-min Rain = 0
KSW1 220225Z 07010KT 13/M04 A3006 RMK A01 T01271040  RH  031%=      5-min Rain = 0
KSW1 220226Z 07010KT 13/M04 A3006 RMK A01 T01271040  RH  031%=      5-min Rain = 0
KSW1 220227Z 07010KT 13/M04 A3006 RMK A01 T01271040  RH  031%=      5-min Rain = 0
KSW1 220228Z 07010KT 13/M04 A3006 RMK A01 T01271040  RH  031%=      5-min Rain = 0
KSW1 220229Z 07010KT 13/M04 A3006 RMK A01 T01271040  RH  031%=      5-min Rain = 0
KSW1 220230Z 07010KT 13/M04 A3006 RMK A01 T01261040  RH  031%=      5-min Rain = 0
KSW1 220231Z 07010KT 13/M04 A3006 RMK A01 T01251040  RH  031%=      5-min Rain = 0
KSW1 220232Z 07010KT 12/M04 A3006 RMK A01 T01241040  RH  032%=      5-min Rain = 0
KSW1 220233Z 07010KT 12/M04 A3006 RMK A01 T01241040  RH  032%=      5-min Rain = 0
KSW1 220234Z 07011KT 12/M04 A3006 RMK A01 T01231040  RH  032%=      5-min Rain = 0
KSW1 220235Z 07011KT 12/M04 A3006 RMK A01 T01241040  RH  032%=      5-min Rain = 0
KSW1 220236Z 07011KT 12/M04 A3006 RMK A01 T01241040  RH  032%=      5-min Rain = 0
KSW1 220237Z 07010KT 12/M04 A3006 RMK A01 T01231040  RH  032%=      5-min Rain = 0
KSW1 220238Z 08010KT 12/M04 A3007 RMK A01 T01221040  RH  032%=      5-min Rain = 0
KSW1 220239Z 08010KT 12/M04 A3007 RMK A01 T01211040  RH  032%=      5-min Rain = 0
KSW1 220240Z 08010KT 12/M04 A3007 RMK A01 T01201040  RH  033%=      5-min Rain = 0
KSW1 220241Z 08010KT 12/M04 A3007 RMK A01 T01181040  RH  033%=      5-min Rain = 0
KSW1 220242Z 08009KT 12/M04 A3007 RMK A01 T01171040  RH  033%=      5-min Rain = 0
KSW1 220243Z 08009KT 12/M04 A3007 RMK A01 T01161040  RH  033%=      5-min Rain = 0
KSW1 220244Z 08009KT 12/M04 A3007 RMK A01 T01151039  RH  034%=      5-min Rain = 0
KSW1 220245Z 08009KT 12/M04 A3007 RMK A01 T01151039  RH  034%=      5-min Rain = 0
KSW1 220246Z 08009KT 12/M04 A3007 RMK A01 T01151039  RH  034%=      5-min Rain = 0
KSW1 220247Z 08009KT 12/M04 A3007 RMK A01 T01151039  RH  034%=      5-min Rain = 0
KSW1 220248Z 08009KT 12/M04 A3007 RMK A01 T01151040  RH  034%=      5-min Rain = 0
KSW1 220249Z 08009KT 12/M04 A3007 RMK A01 T01151040  RH  034%=      5-min Rain = 0
KSW1 220250Z 08009KT 12/M04 A3007 RMK A01 T01151041  RH  033%=      5-min Rain = 0
KSW1 220251Z 08009KT 12/M04 A3007 RMK A01 T01151041  RH  033%=      5-min Rain = 0
KSW1 220252Z 08009KT 12/M04 A3008 RMK A01 T01151042  RH  033%=      5-min Rain = 0
KSW1 220253Z 08009KT 11/M04 A3008 RMK A01 T01141042  RH  033%=      5-min Rain = 0
KSW1 220254Z 07009KT 11/M04 A3008 RMK A01 T01131042  RH  033%=      5-min Rain = 0
KSW1 220255Z 07009KT 11/M04 A3008 RMK A01 T01141043  RH  033%=      5-min Rain = 0
KSW1 220256Z 07009KT 11/M04 A3008 RMK A01 T01141042  RH  033%=      5-min Rain = 0
KSW1 220257Z 07009KT 11/M04 A3008 RMK A01 T01141042  RH  033%=      5-min Rain = 0
KSW1 220258Z 07009KT 12/M04 A3008 RMK A01 T01151043  RH  033%=      5-min Rain = 0
KSW1 220259Z 07009KT 12/M04 A3008 RMK A01 T01151042  RH  033%=      5-min Rain = 0
KSW1 220300Z 07010KT 12/M04 A3008 RMK A01 T01151043  RH  033%=      5-min Rain = 0
KSW1 220301Z 07009KT 11/M04 A3008 RMK A01 T01141043  RH  033%=      5-min Rain = 0
KSW1 220302Z 07009KT 11/M04 A3008 RMK A01 T01131043  RH  033%=      5-min Rain = 0
KSW1 220303Z 07010KT 11/M04 A3008 RMK A01 T01131042  RH  033%=      5-min Rain = 0
KSW1 220304Z 07011KT 11/M04 A3009 RMK A01 T01131042  RH  034%=      5-min Rain = 0
KSW1 220305Z 07011KT 11/M04 A3009 RMK A01 T01131042  RH  034%=      5-min Rain = 0
KSW1 220306Z 07011KT 11/M04 A3009 RMK A01 T01121042  RH  034%=      5-min Rain = 0
KSW1 220307Z 07010KT 11/M04 A3009 RMK A01 T01131043  RH  033%=      5-min Rain = 0
KSW1 220308Z 08011KT 11/M04 A3008 RMK A01 T01141044  RH  033%=      5-min Rain = 0
KSW1 220309Z 08011KT 12/M04 A3008 RMK A01 T01161043  RH  032%=      5-min Rain = 0
KSW1 220310Z 08011KT 12/M04 A3008 RMK A01 T01171043  RH  032%=      5-min Rain = 0
KSW1 220311Z 08011KT 12/M04 A3008 RMK A01 T01171044  RH  032%=      5-min Rain = 0
KSW1 220312Z 09011KT 12/M04 A3008 RMK A01 T01171044  RH  032%=      5-min Rain = 0
KSW1 220313Z 08011KT 12/M05 A3009 RMK A01 T01171045  RH  032%=      5-min Rain = 0
KSW1 220314Z 08011KT 12/M04 A3009 RMK A01 T01171044  RH  032%=      5-min Rain = 0
KSW1 220315Z 08011KT 12/M05 A3009 RMK A01 T01161045  RH  032%=      5-min Rain = 0
KSW1 220316Z 08011KT 12/M05 A3009 RMK A01 T01171045  RH  032%=      5-min Rain = 0
KSW1 220317Z 08012KT 12/M05 A3009 RMK A01 T01171045  RH  032%=      5-min Rain = 0
KSW1 220318Z 08012KT 12/M05 A3009 RMK A01 T01191046  RH  031%=      5-min Rain = 0
KSW1 220319Z 08011KT 12/M05 A3009 RMK A01 T01211046  RH  031%=      5-min Rain = 0
KSW1 220320Z 08011KT 12/M05 A3009 RMK A01 T01221047  RH  030%=      5-min Rain = 0
KSW1 220321Z 08011KT 12/M05 A3009 RMK A01 T01231047  RH  030%=      5-min Rain = 0
KSW1 220322Z 08011KT 12/M05 A3009 RMK A01 T01231047  RH  030%=      5-min Rain = 0
KSW1 220323Z 07011KT 12/M05 A3009 RMK A01 T01231047  RH  030%=      5-min Rain = 0
KSW1 220324Z 08011KT 12/M05 A3009 RMK A01 T01231048  RH  030%=      5-min Rain = 0
KSW1 220325Z 08011KT 12/M05 A3009 RMK A01 T01241048  RH  030%=      5-min Rain = 0
KSW1 220326Z 08011KT 12/M05 A3009 RMK A01 T01241048  RH  030%=      5-min Rain = 0
KSW1 220327Z 08010KT 12/M05 A3009 RMK A01 T01241048  RH  030%=      5-min Rain = 0
KSW1 220328Z 08010KT 12/M05 A3009 RMK A01 T01231048  RH  030%=      5-min Rain = 0
KSW1 220329Z 09009KT 12/M05 A3009 RMK A01 T01221048  RH  030%=      5-min Rain = 0
KSW1 220330Z 08010KT 12/M05 A301 RMK A01 T01211048  RH  030%=      5-min Rain = 0
KSW1 220331Z 08010KT 12/M05 A301 RMK A01 T01191048  RH  031%=      5-min Rain = 0
KSW1 220332Z 08010KT 12/M05 A301 RMK A01 T01181048  RH  031%=      5-min Rain = 0
KSW1 220333Z 08010KT 12/M05 A301 RMK A01 T01171048  RH  031%=      5-min Rain = 0
KSW1 220334Z 08010KT 12/M05 A3009 RMK A01 T01161048  RH  031%=      5-min Rain = 0
KSW1 220335Z 08011KT 12/M05 A3009 RMK A01 T01171048  RH  031%=      5-min Rain = 0
KSW1 220336Z 08010KT 12/M05 A3009 RMK A01 T01181048  RH  031%=      5-min Rain = 0
KSW1 220337Z 08010KT 12/M05 A3009 RMK A01 T01191048  RH  031%=      5-min Rain = 0
KSW1 220338Z 08010KT 12/M05 A3009 RMK A01 T01191048  RH  031%=      5-min Rain = 0
KSW1 220339Z 08010KT 12/M05 A3009 RMK A01 T01201049  RH  030%=      5-min Rain = 0
KSW1 220340Z 08009KT 12/M05 A301 RMK A01 T01211049  RH  030%=      5-min Rain = 0
KSW1 220341Z 08009KT 12/M05 A301 RMK A01 T01211049  RH  030%=      5-min Rain = 0
KSW1 220342Z 08009KT 12/M05 A301 RMK A01 T01221049  RH  030%=      5-min Rain = 0
KSW1 220343Z 07008KT 12/M05 A301 RMK A01 T01221049  RH  030%=      5-min Rain = 0
KSW1 220344Z 07008KT 12/M05 A301 RMK A01 T01211049  RH  030%=      5-min Rain = 0
KSW1 220345Z 08009KT 12/M05 A301 RMK A01 T01191049  RH  031%=      5-min Rain = 0
KSW1 220346Z 08010KT 12/M05 A301 RMK A01 T01181049  RH  031%=      5-min Rain = 0
KSW1 220347Z 08010KT 12/M05 A301 RMK A01 T01181049  RH  031%=      5-min Rain = 0
KSW1 220348Z 08009KT 12/M05 A301 RMK A01 T01191049  RH  031%=      5-min Rain = 0
KSW1 220349Z 08009KT 12/M05 A301 RMK A01 T01201050  RH  030%=      5-min Rain = 0
KSW1 220350Z 08009KT 12/M05 A301 RMK A01 T01221050  RH  030%=      5-min Rain = 0
KSW1 220351Z 09008KT 12/M05 A301 RMK A01 T01221050  RH  030%=      5-min Rain = 0
KSW1 220352Z 09008KT 12/M05 A301 RMK A01 T01231051  RH  029%=      5-min Rain = 0
KSW1 220353Z 09007KT 12/M05 A3011 RMK A01 T01231051  RH  029%=      5-min Rain = 0
KSW1 220354Z 10008KT 12/M05 A3011 RMK A01 T01231051  RH  029%=      5-min Rain = 0
KSW1 220355Z 09008KT 12/M05 A3011 RMK A01 T01221051  RH  029%=      5-min Rain = 0
KSW1 220356Z 09008KT 12/M05 A3011 RMK A01 T01231051  RH  029%=      5-min Rain = 0
KSW1 220357Z 09007KT 12/M05 A3011 RMK A01 T01211051  RH  030%=      5-min Rain = 0
KSW1 220358Z 09008KT 12/M05 A3011 RMK A01 T01201051  RH  030%=      5-min Rain = 0
KSW1 220359Z 09008KT 12/M05 A3011 RMK A01 T01191051  RH  030%=      5-min Rain = 0
KSW1 220400Z 09008KT 12/M05 A3011 RMK A01 T01181051  RH  030%=      5-min Rain = 0
KSW1 220401Z 09008KT 12/M05 A3011 RMK A01 T01171050  RH  031%=      5-min Rain = 0
KSW1 220402Z 09008KT 12/M05 A3011 RMK A01 T01161051  RH  031%=      5-min Rain = 0
KSW1 220403Z 09008KT 12/M05 A3011 RMK A01 T01161051  RH  031%=      5-min Rain = 0
KSW1 220404Z 09008KT 12/M05 A3011 RMK A01 T01161051  RH  031%=      5-min Rain = 0
KSW1 220405Z 09008KT 12/M05 A3011 RMK A01 T01171050  RH  031%=      5-min Rain = 0
KSW1 220406Z 10009KT 12/M05 A3011 RMK A01 T01171050  RH  031%=      5-min Rain = 0
KSW1 220407Z 10009KT 12/M05 A3011 RMK A01 T01171050  RH  031%=      5-min Rain = 0
KSW1 220408Z 10009KT 12/M05 A3011 RMK A01 T01171050  RH  031%=      5-min Rain = 0
KSW1 220409Z 10008KT 12/M05 A3011 RMK A01 T01171050  RH  031%=      5-min Rain = 0
KSW1 220410Z 10009KT 12/M05 A3011 RMK A01 T01161051  RH  031%=      5-min Rain = 0
KSW1 220411Z 10009KT 12/M05 A3011 RMK A01 T01161050  RH  031%=      5-min Rain = 0
KSW1 220412Z 09009KT 12/M05 A3011 RMK A01 T01161050  RH  031%=      5-min Rain = 0
KSW1 220413Z 09008KT 12/M05 A3011 RMK A01 T01171050  RH  031%=      5-min Rain = 0
KSW1 220414Z 09008KT 12/M05 A3011 RMK A01 T01171050  RH  031%=      5-min Rain = 0
KSW1 220415Z 09008KT 12/M05 A3011 RMK A01 T01181050  RH  031%=      5-min Rain = 0
KSW1 220416Z 09008KT 12/M05 A3011 RMK A01 T01171050  RH  031%=      5-min Rain = 0
KSW1 220417Z 08008KT 12/M05 A3011 RMK A01 T01161050  RH  031%=      5-min Rain = 0
KSW1 220418Z 08008KT 12/M05 A3011 RMK A01 T01151050  RH  031%=      5-min Rain = 0
KSW1 220419Z 08008KT 11/M05 A3011 RMK A01 T01141050  RH  031%=      5-min Rain = 0
KSW1 220420Z 08008KT 11/M05 A3011 RMK A01 T01141050  RH  031%=      5-min Rain = 0
KSW1 220421Z 08008KT 11/M05 A3011 RMK A01 T01141050  RH  031%=      5-min Rain = 0
KSW1 220422Z 08007KT 11/M05 A3011 RMK A01 T01131049  RH  032%=      5-min Rain = 0
KSW1 220423Z 08006KT 11/M05 A3011 RMK A01 T01131049  RH  032%=      5-min Rain = 0
KSW1 220424Z 08006KT 11/M05 A3011 RMK A01 T01111047  RH  033%=      5-min Rain = 0
KSW1 220425Z 08007KT 11/M05 A3011 RMK A01 T01081047  RH  033%=      5-min Rain = 0
KSW1 220426Z 08008KT 11/M05 A3011 RMK A01 T01051047  RH  034%=      5-min Rain = 0
KSW1 220427Z 08008KT 11/M05 A3011 RMK A01 T01051047  RH  034%=      5-min Rain = 0
KSW1 220428Z 08008KT 11/M05 A3011 RMK A01 T01051047  RH  034%=      5-min Rain = 0
KSW1 220429Z 09008KT 11/M05 A3011 RMK A01 T01051048  RH  034%=      5-min Rain = 0
KSW1 220430Z 09008KT 11/M05 A3011 RMK A01 T01061048  RH  033%=      5-min Rain = 0
KSW1 220431Z 09009KT 11/M05 A3011 RMK A01 T01081049  RH  033%=      5-min Rain = 0
KSW1 220432Z 09008KT 11/M05 A3011 RMK A01 T01091049  RH  033%=      5-min Rain = 0
KSW1 220433Z 09008KT 11/M05 A3011 RMK A01 T01091049  RH  032%=      5-min Rain = 0
KSW1 220434Z 09008KT 11/M05 A3011 RMK A01 T01101050  RH  032%=      5-min Rain = 0
KSW1 220435Z 09009KT 11/M05 A3011 RMK A01 T01101049  RH  032%=      5-min Rain = 0
KSW1 220436Z 09009KT 11/M05 A3011 RMK A01 T01101050  RH  032%=      5-min Rain = 0
KSW1 220437Z 08009KT 11/M05 A3011 RMK A01 T01091050  RH  032%=      5-min Rain = 0
KSW1 220438Z 08009KT 11/M05 A3011 RMK A01 T01101050  RH  032%=      5-min Rain = 0
KSW1 220439Z 08010KT 11/M05 A3011 RMK A01 T01111051  RH  032%=      5-min Rain = 0
KSW1 220440Z 08009KT 11/M05 A3011 RMK A01 T01121050  RH  032%=      5-min Rain = 0
KSW1 220441Z 07009KT 11/M05 A3011 RMK A01 T01131051  RH  031%=      5-min Rain = 0
KSW1 220442Z 07008KT 11/M05 A3011 RMK A01 T01131050  RH  031%=      5-min Rain = 0
KSW1 220443Z 07009KT 11/M05 A3012 RMK A01 T01121049  RH  032%=      5-min Rain = 0
KSW1 220444Z 07009KT 11/M05 A3012 RMK A01 T01101049  RH  033%=      5-min Rain = 0
KSW1 220445Z 07009KT 11/M05 A3012 RMK A01 T01081049  RH  033%=      5-min Rain = 0
KSW1 220446Z 08009KT 11/M05 A3012 RMK A01 T01091050  RH  032%=      5-min Rain = 0
KSW1 220447Z 08008KT 11/M05 A3012 RMK A01 T01111050  RH  032%=      5-min Rain = 0
KSW1 220448Z 08008KT 11/M05 A3012 RMK A01 T01121050  RH  032%=      5-min Rain = 0
KSW1 220449Z 08007KT 11/M05 A3012 RMK A01 T01121050  RH  032%=      5-min Rain = 0
KSW1 220450Z 08008KT 11/M05 A3012 RMK A01 T01121050  RH  032%=      5-min Rain = 0
KSW1 220451Z 08008KT 11/M05 A3012 RMK A01 T01121050  RH  032%=      5-min Rain = 0
KSW1 220452Z 09009KT 11/M05 A3012 RMK A01 T01111050  RH  032%=      5-min Rain = 0
KSW1 220453Z 09009KT 11/M05 A3012 RMK A01 T01101051  RH  032%=      5-min Rain = 0
KSW1 220454Z 09009KT 11/M05 A3012 RMK A01 T01111051  RH  032%=      5-min Rain = 0
KSW1 220455Z 08010KT 11/M05 A3012 RMK A01 T01111051  RH  032%=      5-min Rain = 0
KSW1 220456Z 09010KT 11/M05 A3012 RMK A01 T01121052  RH  031%=      5-min Rain = 0
KSW1 220457Z 09011KT 12/M05 A3012 RMK A01 T01171053  RH  030%=      5-min Rain = 0
KSW1 220458Z 09010KT 12/M05 A3012 RMK A01 T01231054  RH  029%=      5-min Rain = 0
KSW1 220459Z 09009KT 13/M06 A3012 RMK A01 T01271055  RH  028%=      5-min Rain = 0

Page generated in 0.0909 seconds.